<?xml version="1.0" encoding="UTF-8" standalone="no" ?>
<gpx xmlns="http://www.topografix.com/GPX/1/1" xmlns:xsi="http://www.w3.org/2001/XMLSchema-instance" xsi:schemaLocation="http://www.topografix.com/GPX/1/1 http://www.topografix.com/GPX/1/1/gpx.xsd" version="1.1" creator="VisuGPX - https://www.visugpx.com">
  <metadata>
    <name>20e rando du bocage</name>
    <desc><![CDATA[1ere de l'année, pas trop grasse malgré les pluies des semaines precedentes]]></desc>
  </metadata>
  <trk>
    <name><![CDATA[2016-03-13 10:13:26]]></name>
    <trkseg>
      <trkpt lat="50.12559" lon="3.67893">
        <ele>135.68</ele>
        <time>2016-03-13T07:19:48Z</time>
      </trkpt>
      <trkpt lat="50.12562" lon="3.67896">
        <ele>135.68</ele>
        <time>2016-03-13T07:19:49Z</time>
      </trkpt>
      <trkpt lat="50.12586" lon="3.67925">
        <ele>135.68</ele>
        <time>2016-03-13T07:19:58Z</time>
      </trkpt>
      <trkpt lat="50.12592" lon="3.67935">
        <ele>135.68</ele>
        <time>2016-03-13T07:20:00Z</time>
      </trkpt>
      <trkpt lat="50.12594" lon="3.6794">
        <ele>135.68</ele>
        <time>2016-03-13T07:20:01Z</time>
      </trkpt>
      <trkpt lat="50.126" lon="3.67952">
        <ele>136.16</ele>
        <time>2016-03-13T07:20:03Z</time>
      </trkpt>
      <trkpt lat="50.12643" lon="3.6804">
        <ele>135.68</ele>
        <time>2016-03-13T07:20:18Z</time>
      </trkpt>
      <trkpt lat="50.12669" lon="3.68099">
        <ele>135.68</ele>
        <time>2016-03-13T07:20:28Z</time>
      </trkpt>
      <trkpt lat="50.12671" lon="3.68105">
        <ele>135.68</ele>
        <time>2016-03-13T07:20:29Z</time>
      </trkpt>
      <trkpt lat="50.12674" lon="3.68111">
        <ele>135.68</ele>
        <time>2016-03-13T07:20:30Z</time>
      </trkpt>
      <trkpt lat="50.12722" lon="3.68213">
        <ele>135.68</ele>
        <time>2016-03-13T07:20:50Z</time>
      </trkpt>
      <trkpt lat="50.12728" lon="3.6823">
        <ele>136.64</ele>
        <time>2016-03-13T07:20:53Z</time>
      </trkpt>
      <trkpt lat="50.12758" lon="3.68324">
        <ele>137.13</ele>
        <time>2016-03-13T07:21:10Z</time>
      </trkpt>
      <trkpt lat="50.12795" lon="3.68438">
        <ele>137.61</ele>
        <time>2016-03-13T07:21:32Z</time>
      </trkpt>
      <trkpt lat="50.12796" lon="3.68442">
        <ele>137.61</ele>
        <time>2016-03-13T07:21:33Z</time>
      </trkpt>
      <trkpt lat="50.12794" lon="3.68448">
        <ele>137.61</ele>
        <time>2016-03-13T07:21:34Z</time>
      </trkpt>
      <trkpt lat="50.12791" lon="3.68451">
        <ele>137.61</ele>
        <time>2016-03-13T07:21:35Z</time>
      </trkpt>
      <trkpt lat="50.12789" lon="3.68452">
        <ele>137.61</ele>
        <time>2016-03-13T07:21:36Z</time>
      </trkpt>
      <trkpt lat="50.12785" lon="3.68455">
        <ele>137.61</ele>
        <time>2016-03-13T07:21:37Z</time>
      </trkpt>
      <trkpt lat="50.12782" lon="3.68458">
        <ele>137.61</ele>
        <time>2016-03-13T07:21:38Z</time>
      </trkpt>
      <trkpt lat="50.12744" lon="3.6849">
        <ele>136.16</ele>
        <time>2016-03-13T07:21:47Z</time>
      </trkpt>
      <trkpt lat="50.1274" lon="3.68494">
        <ele>136.16</ele>
        <time>2016-03-13T07:21:48Z</time>
      </trkpt>
      <trkpt lat="50.12736" lon="3.68499">
        <ele>136.16</ele>
        <time>2016-03-13T07:21:49Z</time>
      </trkpt>
      <trkpt lat="50.12734" lon="3.68507">
        <ele>136.16</ele>
        <time>2016-03-13T07:21:50Z</time>
      </trkpt>
      <trkpt lat="50.12733" lon="3.68516">
        <ele>136.16</ele>
        <time>2016-03-13T07:21:51Z</time>
      </trkpt>
      <trkpt lat="50.12735" lon="3.68523">
        <ele>136.16</ele>
        <time>2016-03-13T07:21:52Z</time>
      </trkpt>
      <trkpt lat="50.12737" lon="3.68527">
        <ele>136.16</ele>
        <time>2016-03-13T07:21:53Z</time>
      </trkpt>
      <trkpt lat="50.1274" lon="3.68532">
        <ele>136.16</ele>
        <time>2016-03-13T07:21:54Z</time>
      </trkpt>
      <trkpt lat="50.12743" lon="3.68537">
        <ele>136.16</ele>
        <time>2016-03-13T07:21:55Z</time>
      </trkpt>
      <trkpt lat="50.12746" lon="3.68543">
        <ele>136.16</ele>
        <time>2016-03-13T07:21:56Z</time>
      </trkpt>
      <trkpt lat="50.12787" lon="3.68617">
        <ele>136.16</ele>
        <time>2016-03-13T07:22:12Z</time>
      </trkpt>
      <trkpt lat="50.1279" lon="3.68616">
        <ele>136.16</ele>
        <time>2016-03-13T07:22:13Z</time>
      </trkpt>
      <trkpt lat="50.12791" lon="3.68614">
        <ele>136.16</ele>
        <time>2016-03-13T07:22:14Z</time>
      </trkpt>
      <trkpt lat="50.12809" lon="3.68579">
        <ele>137.13</ele>
        <time>2016-03-13T07:22:24Z</time>
      </trkpt>
      <trkpt lat="50.12814" lon="3.6857">
        <ele>137.13</ele>
        <time>2016-03-13T07:22:26Z</time>
      </trkpt>
      <trkpt lat="50.12816" lon="3.68564">
        <ele>137.13</ele>
        <time>2016-03-13T07:22:27Z</time>
      </trkpt>
      <trkpt lat="50.12829" lon="3.68501">
        <ele>140.49</ele>
        <time>2016-03-13T07:22:37Z</time>
      </trkpt>
      <trkpt lat="50.12847" lon="3.68429">
        <ele>143.37</ele>
        <time>2016-03-13T07:22:50Z</time>
      </trkpt>
      <trkpt lat="50.12872" lon="3.68372">
        <ele>146.74</ele>
        <time>2016-03-13T07:23:04Z</time>
      </trkpt>
      <trkpt lat="50.12922" lon="3.68327">
        <ele>147.22</ele>
        <time>2016-03-13T07:23:21Z</time>
      </trkpt>
      <trkpt lat="50.12931" lon="3.68323">
        <ele>145.78</ele>
        <time>2016-03-13T07:23:23Z</time>
      </trkpt>
      <trkpt lat="50.12961" lon="3.68312">
        <ele>144.82</ele>
        <time>2016-03-13T07:23:29Z</time>
      </trkpt>
      <trkpt lat="50.12976" lon="3.68308">
        <ele>144.34</ele>
        <time>2016-03-13T07:23:32Z</time>
      </trkpt>
      <trkpt lat="50.12981" lon="3.68301">
        <ele>144.34</ele>
        <time>2016-03-13T07:23:33Z</time>
      </trkpt>
      <trkpt lat="50.12982" lon="3.68293">
        <ele>144.34</ele>
        <time>2016-03-13T07:23:34Z</time>
      </trkpt>
      <trkpt lat="50.12981" lon="3.68286">
        <ele>144.34</ele>
        <time>2016-03-13T07:23:35Z</time>
      </trkpt>
      <trkpt lat="50.1298" lon="3.6828">
        <ele>144.34</ele>
        <time>2016-03-13T07:23:36Z</time>
      </trkpt>
      <trkpt lat="50.12979" lon="3.68272">
        <ele>144.34</ele>
        <time>2016-03-13T07:23:37Z</time>
      </trkpt>
      <trkpt lat="50.12979" lon="3.68261">
        <ele>144.34</ele>
        <time>2016-03-13T07:23:38Z</time>
      </trkpt>
      <trkpt lat="50.1298" lon="3.68257">
        <ele>144.34</ele>
        <time>2016-03-13T07:23:39Z</time>
      </trkpt>
      <trkpt lat="50.12981" lon="3.68249">
        <ele>144.34</ele>
        <time>2016-03-13T07:23:40Z</time>
      </trkpt>
      <trkpt lat="50.12997" lon="3.68143">
        <ele>147.7</ele>
        <time>2016-03-13T07:23:55Z</time>
      </trkpt>
      <trkpt lat="50.13015" lon="3.68028">
        <ele>149.14</ele>
        <time>2016-03-13T07:24:12Z</time>
      </trkpt>
      <trkpt lat="50.13041" lon="3.67896">
        <ele>151.06</ele>
        <time>2016-03-13T07:24:32Z</time>
      </trkpt>
      <trkpt lat="50.13065" lon="3.67789">
        <ele>152.03</ele>
        <time>2016-03-13T07:24:49Z</time>
      </trkpt>
      <trkpt lat="50.13094" lon="3.67663">
        <ele>153.95</ele>
        <time>2016-03-13T07:25:09Z</time>
      </trkpt>
      <trkpt lat="50.13125" lon="3.67544">
        <ele>155.87</ele>
        <time>2016-03-13T07:25:29Z</time>
      </trkpt>
      <trkpt lat="50.13166" lon="3.67417">
        <ele>157.79</ele>
        <time>2016-03-13T07:25:51Z</time>
      </trkpt>
      <trkpt lat="50.13211" lon="3.67299">
        <ele>158.27</ele>
        <time>2016-03-13T07:26:12Z</time>
      </trkpt>
      <trkpt lat="50.13257" lon="3.6718">
        <ele>158.27</ele>
        <time>2016-03-13T07:26:32Z</time>
      </trkpt>
      <trkpt lat="50.13294" lon="3.67078">
        <ele>159.72</ele>
        <time>2016-03-13T07:26:49Z</time>
      </trkpt>
      <trkpt lat="50.13332" lon="3.66975">
        <ele>162.12</ele>
        <time>2016-03-13T07:27:08Z</time>
      </trkpt>
      <trkpt lat="50.13379" lon="3.66914">
        <ele>165</ele>
        <time>2016-03-13T07:27:25Z</time>
      </trkpt>
      <trkpt lat="50.13446" lon="3.66832">
        <ele>166.45</ele>
        <time>2016-03-13T07:27:48Z</time>
      </trkpt>
      <trkpt lat="50.13495" lon="3.66754">
        <ele>166.93</ele>
        <time>2016-03-13T07:28:06Z</time>
      </trkpt>
      <trkpt lat="50.13503" lon="3.66732">
        <ele>166.93</ele>
        <time>2016-03-13T07:28:10Z</time>
      </trkpt>
      <trkpt lat="50.13507" lon="3.66721">
        <ele>167.41</ele>
        <time>2016-03-13T07:28:12Z</time>
      </trkpt>
      <trkpt lat="50.13509" lon="3.66715">
        <ele>167.41</ele>
        <time>2016-03-13T07:28:13Z</time>
      </trkpt>
      <trkpt lat="50.1351" lon="3.66709">
        <ele>167.41</ele>
        <time>2016-03-13T07:28:14Z</time>
      </trkpt>
      <trkpt lat="50.13512" lon="3.66703">
        <ele>167.41</ele>
        <time>2016-03-13T07:28:15Z</time>
      </trkpt>
      <trkpt lat="50.13515" lon="3.66697">
        <ele>167.41</ele>
        <time>2016-03-13T07:28:16Z</time>
      </trkpt>
      <trkpt lat="50.13517" lon="3.66692">
        <ele>167.41</ele>
        <time>2016-03-13T07:28:17Z</time>
      </trkpt>
      <trkpt lat="50.13527" lon="3.66661">
        <ele>167.41</ele>
        <time>2016-03-13T07:28:22Z</time>
      </trkpt>
      <trkpt lat="50.1357" lon="3.66534">
        <ele>166.45</ele>
        <time>2016-03-13T07:28:39Z</time>
      </trkpt>
      <trkpt lat="50.13632" lon="3.66359">
        <ele>165</ele>
        <time>2016-03-13T07:29:00Z</time>
      </trkpt>
      <trkpt lat="50.13682" lon="3.66235">
        <ele>164.52</ele>
        <time>2016-03-13T07:29:17Z</time>
      </trkpt>
      <trkpt lat="50.13683" lon="3.66229">
        <ele>164.52</ele>
        <time>2016-03-13T07:29:18Z</time>
      </trkpt>
      <trkpt lat="50.13685" lon="3.66222">
        <ele>164.52</ele>
        <time>2016-03-13T07:29:19Z</time>
      </trkpt>
      <trkpt lat="50.13687" lon="3.66216">
        <ele>165.48</ele>
        <time>2016-03-13T07:29:20Z</time>
      </trkpt>
      <trkpt lat="50.13719" lon="3.66133">
        <ele>166.45</ele>
        <time>2016-03-13T07:29:34Z</time>
      </trkpt>
      <trkpt lat="50.1374" lon="3.66021">
        <ele>166.93</ele>
        <time>2016-03-13T07:29:51Z</time>
      </trkpt>
      <trkpt lat="50.13746" lon="3.65941">
        <ele>167.41</ele>
        <time>2016-03-13T07:30:03Z</time>
      </trkpt>
      <trkpt lat="50.13746" lon="3.65934">
        <ele>167.41</ele>
        <time>2016-03-13T07:30:04Z</time>
      </trkpt>
      <trkpt lat="50.13745" lon="3.65928">
        <ele>167.41</ele>
        <time>2016-03-13T07:30:05Z</time>
      </trkpt>
      <trkpt lat="50.13745" lon="3.65922">
        <ele>167.41</ele>
        <time>2016-03-13T07:30:06Z</time>
      </trkpt>
      <trkpt lat="50.13744" lon="3.65916">
        <ele>167.41</ele>
        <time>2016-03-13T07:30:07Z</time>
      </trkpt>
      <trkpt lat="50.13743" lon="3.65907">
        <ele>167.41</ele>
        <time>2016-03-13T07:30:09Z</time>
      </trkpt>
      <trkpt lat="50.1374" lon="3.65905">
        <ele>167.41</ele>
        <time>2016-03-13T07:30:10Z</time>
      </trkpt>
      <trkpt lat="50.13726" lon="3.65895">
        <ele>167.89</ele>
        <time>2016-03-13T07:30:15Z</time>
      </trkpt>
      <trkpt lat="50.13706" lon="3.65835">
        <ele>167.89</ele>
        <time>2016-03-13T07:30:30Z</time>
      </trkpt>
      <trkpt lat="50.13706" lon="3.65833">
        <ele>167.89</ele>
        <time>2016-03-13T07:30:31Z</time>
      </trkpt>
      <trkpt lat="50.137" lon="3.65822">
        <ele>167.89</ele>
        <time>2016-03-13T07:30:39Z</time>
      </trkpt>
      <trkpt lat="50.137" lon="3.65818">
        <ele>167.89</ele>
        <time>2016-03-13T07:30:42Z</time>
      </trkpt>
      <trkpt lat="50.13698" lon="3.65815">
        <ele>167.89</ele>
        <time>2016-03-13T07:30:44Z</time>
      </trkpt>
      <trkpt lat="50.13695" lon="3.65813">
        <ele>167.89</ele>
        <time>2016-03-13T07:30:46Z</time>
      </trkpt>
      <trkpt lat="50.1369" lon="3.65814">
        <ele>167.89</ele>
        <time>2016-03-13T07:30:55Z</time>
      </trkpt>
      <trkpt lat="50.13686" lon="3.65812">
        <ele>167.89</ele>
        <time>2016-03-13T07:31:10Z</time>
      </trkpt>
      <trkpt lat="50.13688" lon="3.65813">
        <ele>167.89</ele>
        <time>2016-03-13T07:31:49Z</time>
      </trkpt>
      <trkpt lat="50.13689" lon="3.65812">
        <ele>167.89</ele>
        <time>2016-03-13T07:32:37Z</time>
      </trkpt>
      <trkpt lat="50.13688" lon="3.65812">
        <ele>167.89</ele>
        <time>2016-03-13T07:33:21Z</time>
      </trkpt>
      <trkpt lat="50.13687" lon="3.65813">
        <ele>167.89</ele>
        <time>2016-03-13T07:34:00Z</time>
      </trkpt>
      <trkpt lat="50.13689" lon="3.65811">
        <ele>167.89</ele>
        <time>2016-03-13T07:34:34Z</time>
      </trkpt>
      <trkpt lat="50.13688" lon="3.65814">
        <ele>167.89</ele>
        <time>2016-03-13T07:35:07Z</time>
      </trkpt>
      <trkpt lat="50.13688" lon="3.65811">
        <ele>167.89</ele>
        <time>2016-03-13T07:35:35Z</time>
      </trkpt>
      <trkpt lat="50.13689" lon="3.65815">
        <ele>167.89</ele>
        <time>2016-03-13T07:36:08Z</time>
      </trkpt>
      <trkpt lat="50.13689" lon="3.65814">
        <ele>167.89</ele>
        <time>2016-03-13T07:36:35Z</time>
      </trkpt>
      <trkpt lat="50.1369" lon="3.65815">
        <ele>167.89</ele>
        <time>2016-03-13T07:36:47Z</time>
      </trkpt>
      <trkpt lat="50.1369" lon="3.65813">
        <ele>167.89</ele>
        <time>2016-03-13T07:37:09Z</time>
      </trkpt>
      <trkpt lat="50.13689" lon="3.65811">
        <ele>167.89</ele>
        <time>2016-03-13T07:37:30Z</time>
      </trkpt>
      <trkpt lat="50.1369" lon="3.6581">
        <ele>167.89</ele>
        <time>2016-03-13T07:37:37Z</time>
      </trkpt>
      <trkpt lat="50.13703" lon="3.65803">
        <ele>167.89</ele>
        <time>2016-03-13T07:37:47Z</time>
      </trkpt>
      <trkpt lat="50.13712" lon="3.65786">
        <ele>167.89</ele>
        <time>2016-03-13T07:37:54Z</time>
      </trkpt>
      <trkpt lat="50.13713" lon="3.65778">
        <ele>167.89</ele>
        <time>2016-03-13T07:37:57Z</time>
      </trkpt>
      <trkpt lat="50.13715" lon="3.65775">
        <ele>167.89</ele>
        <time>2016-03-13T07:37:59Z</time>
      </trkpt>
      <trkpt lat="50.13725" lon="3.65763">
        <ele>167.89</ele>
        <time>2016-03-13T07:38:11Z</time>
      </trkpt>
      <trkpt lat="50.13728" lon="3.65764">
        <ele>167.89</ele>
        <time>2016-03-13T07:38:12Z</time>
      </trkpt>
      <trkpt lat="50.1373" lon="3.65765">
        <ele>167.89</ele>
        <time>2016-03-13T07:38:13Z</time>
      </trkpt>
      <trkpt lat="50.13732" lon="3.65767">
        <ele>167.89</ele>
        <time>2016-03-13T07:38:14Z</time>
      </trkpt>
      <trkpt lat="50.13733" lon="3.65769">
        <ele>167.89</ele>
        <time>2016-03-13T07:38:15Z</time>
      </trkpt>
      <trkpt lat="50.13734" lon="3.65772">
        <ele>167.89</ele>
        <time>2016-03-13T07:38:16Z</time>
      </trkpt>
      <trkpt lat="50.13736" lon="3.65774">
        <ele>167.89</ele>
        <time>2016-03-13T07:38:17Z</time>
      </trkpt>
      <trkpt lat="50.13737" lon="3.65776">
        <ele>167.89</ele>
        <time>2016-03-13T07:38:18Z</time>
      </trkpt>
      <trkpt lat="50.13738" lon="3.65777">
        <ele>167.89</ele>
        <time>2016-03-13T07:38:19Z</time>
      </trkpt>
      <trkpt lat="50.13743" lon="3.65781">
        <ele>167.89</ele>
        <time>2016-03-13T07:38:23Z</time>
      </trkpt>
      <trkpt lat="50.13745" lon="3.6578">
        <ele>167.89</ele>
        <time>2016-03-13T07:38:24Z</time>
      </trkpt>
      <trkpt lat="50.13747" lon="3.65779">
        <ele>167.89</ele>
        <time>2016-03-13T07:38:25Z</time>
      </trkpt>
      <trkpt lat="50.13749" lon="3.65777">
        <ele>167.89</ele>
        <time>2016-03-13T07:38:26Z</time>
      </trkpt>
      <trkpt lat="50.13751" lon="3.65775">
        <ele>166.45</ele>
        <time>2016-03-13T07:38:27Z</time>
      </trkpt>
      <trkpt lat="50.13752" lon="3.65773">
        <ele>166.45</ele>
        <time>2016-03-13T07:38:28Z</time>
      </trkpt>
      <trkpt lat="50.13753" lon="3.6577">
        <ele>166.45</ele>
        <time>2016-03-13T07:38:29Z</time>
      </trkpt>
      <trkpt lat="50.13754" lon="3.65767">
        <ele>166.45</ele>
        <time>2016-03-13T07:38:30Z</time>
      </trkpt>
      <trkpt lat="50.13755" lon="3.65764">
        <ele>166.45</ele>
        <time>2016-03-13T07:38:31Z</time>
      </trkpt>
      <trkpt lat="50.13756" lon="3.6576">
        <ele>166.45</ele>
        <time>2016-03-13T07:38:32Z</time>
      </trkpt>
      <trkpt lat="50.13758" lon="3.6574">
        <ele>166.45</ele>
        <time>2016-03-13T07:38:36Z</time>
      </trkpt>
      <trkpt lat="50.13763" lon="3.65715">
        <ele>166.45</ele>
        <time>2016-03-13T07:38:40Z</time>
      </trkpt>
      <trkpt lat="50.13778" lon="3.65598">
        <ele>165.96</ele>
        <time>2016-03-13T07:38:57Z</time>
      </trkpt>
      <trkpt lat="50.13791" lon="3.65531">
        <ele>165.96</ele>
        <time>2016-03-13T07:39:07Z</time>
      </trkpt>
      <trkpt lat="50.13803" lon="3.65479">
        <ele>165.48</ele>
        <time>2016-03-13T07:39:15Z</time>
      </trkpt>
      <trkpt lat="50.13837" lon="3.65355">
        <ele>163.08</ele>
        <time>2016-03-13T07:39:32Z</time>
      </trkpt>
      <trkpt lat="50.13839" lon="3.65347">
        <ele>162.6</ele>
        <time>2016-03-13T07:39:33Z</time>
      </trkpt>
      <trkpt lat="50.13842" lon="3.6534">
        <ele>162.6</ele>
        <time>2016-03-13T07:39:34Z</time>
      </trkpt>
      <trkpt lat="50.13873" lon="3.65246">
        <ele>160.2</ele>
        <time>2016-03-13T07:39:48Z</time>
      </trkpt>
      <trkpt lat="50.13895" lon="3.65179">
        <ele>158.75</ele>
        <time>2016-03-13T07:40:04Z</time>
      </trkpt>
      <trkpt lat="50.13915" lon="3.65126">
        <ele>158.27</ele>
        <time>2016-03-13T07:40:16Z</time>
      </trkpt>
      <trkpt lat="50.13961" lon="3.6503">
        <ele>157.79</ele>
        <time>2016-03-13T07:40:32Z</time>
      </trkpt>
      <trkpt lat="50.1402" lon="3.6494">
        <ele>157.31</ele>
        <time>2016-03-13T07:40:51Z</time>
      </trkpt>
      <trkpt lat="50.14079" lon="3.6486">
        <ele>156.83</ele>
        <time>2016-03-13T07:41:09Z</time>
      </trkpt>
      <trkpt lat="50.14101" lon="3.64829">
        <ele>156.83</ele>
        <time>2016-03-13T07:41:16Z</time>
      </trkpt>
      <trkpt lat="50.14144" lon="3.64781">
        <ele>156.35</ele>
        <time>2016-03-13T07:41:29Z</time>
      </trkpt>
      <trkpt lat="50.14147" lon="3.64782">
        <ele>156.83</ele>
        <time>2016-03-13T07:41:30Z</time>
      </trkpt>
      <trkpt lat="50.14149" lon="3.64785">
        <ele>156.35</ele>
        <time>2016-03-13T07:41:31Z</time>
      </trkpt>
      <trkpt lat="50.14151" lon="3.64789">
        <ele>156.35</ele>
        <time>2016-03-13T07:41:32Z</time>
      </trkpt>
      <trkpt lat="50.14152" lon="3.64793">
        <ele>156.35</ele>
        <time>2016-03-13T07:41:33Z</time>
      </trkpt>
      <trkpt lat="50.14166" lon="3.6482">
        <ele>156.35</ele>
        <time>2016-03-13T07:41:39Z</time>
      </trkpt>
      <trkpt lat="50.14168" lon="3.64825">
        <ele>156.35</ele>
        <time>2016-03-13T07:41:40Z</time>
      </trkpt>
      <trkpt lat="50.14173" lon="3.64835">
        <ele>157.79</ele>
        <time>2016-03-13T07:41:42Z</time>
      </trkpt>
      <trkpt lat="50.14207" lon="3.64909">
        <ele>159.72</ele>
        <time>2016-03-13T07:41:57Z</time>
      </trkpt>
      <trkpt lat="50.14224" lon="3.64958">
        <ele>161.16</ele>
        <time>2016-03-13T07:42:06Z</time>
      </trkpt>
      <trkpt lat="50.14256" lon="3.65061">
        <ele>159.72</ele>
        <time>2016-03-13T07:42:23Z</time>
      </trkpt>
      <trkpt lat="50.14277" lon="3.65098">
        <ele>159.24</ele>
        <time>2016-03-13T07:42:30Z</time>
      </trkpt>
      <trkpt lat="50.14316" lon="3.65138">
        <ele>157.79</ele>
        <time>2016-03-13T07:42:40Z</time>
      </trkpt>
      <trkpt lat="50.14406" lon="3.65176">
        <ele>155.39</ele>
        <time>2016-03-13T07:42:59Z</time>
      </trkpt>
      <trkpt lat="50.14485" lon="3.65195">
        <ele>153.95</ele>
        <time>2016-03-13T07:43:16Z</time>
      </trkpt>
      <trkpt lat="50.14547" lon="3.65206">
        <ele>153.47</ele>
        <time>2016-03-13T07:43:28Z</time>
      </trkpt>
      <trkpt lat="50.14552" lon="3.65209">
        <ele>153.47</ele>
        <time>2016-03-13T07:43:29Z</time>
      </trkpt>
      <trkpt lat="50.14556" lon="3.65213">
        <ele>153.47</ele>
        <time>2016-03-13T07:43:30Z</time>
      </trkpt>
      <trkpt lat="50.14561" lon="3.65218">
        <ele>153.47</ele>
        <time>2016-03-13T07:43:31Z</time>
      </trkpt>
      <trkpt lat="50.14564" lon="3.65224">
        <ele>153.47</ele>
        <time>2016-03-13T07:43:32Z</time>
      </trkpt>
      <trkpt lat="50.14567" lon="3.6523">
        <ele>153.47</ele>
        <time>2016-03-13T07:43:33Z</time>
      </trkpt>
      <trkpt lat="50.1457" lon="3.65236">
        <ele>153.47</ele>
        <time>2016-03-13T07:43:34Z</time>
      </trkpt>
      <trkpt lat="50.14626" lon="3.65333">
        <ele>155.87</ele>
        <time>2016-03-13T07:43:52Z</time>
      </trkpt>
      <trkpt lat="50.14641" lon="3.65343">
        <ele>156.35</ele>
        <time>2016-03-13T07:43:57Z</time>
      </trkpt>
      <trkpt lat="50.14643" lon="3.6534">
        <ele>156.35</ele>
        <time>2016-03-13T07:43:58Z</time>
      </trkpt>
      <trkpt lat="50.14644" lon="3.65335">
        <ele>156.35</ele>
        <time>2016-03-13T07:43:59Z</time>
      </trkpt>
      <trkpt lat="50.14645" lon="3.65265">
        <ele>156.35</ele>
        <time>2016-03-13T07:44:10Z</time>
      </trkpt>
      <trkpt lat="50.14653" lon="3.65156">
        <ele>153.47</ele>
        <time>2016-03-13T07:44:24Z</time>
      </trkpt>
      <trkpt lat="50.14675" lon="3.65053">
        <ele>152.51</ele>
        <time>2016-03-13T07:44:39Z</time>
      </trkpt>
      <trkpt lat="50.14678" lon="3.65048">
        <ele>152.51</ele>
        <time>2016-03-13T07:44:40Z</time>
      </trkpt>
      <trkpt lat="50.14726" lon="3.64976">
        <ele>152.51</ele>
        <time>2016-03-13T07:44:57Z</time>
      </trkpt>
      <trkpt lat="50.14763" lon="3.64917">
        <ele>152.51</ele>
        <time>2016-03-13T07:45:09Z</time>
      </trkpt>
      <trkpt lat="50.14766" lon="3.64912">
        <ele>152.51</ele>
        <time>2016-03-13T07:45:10Z</time>
      </trkpt>
      <trkpt lat="50.14774" lon="3.64896">
        <ele>152.51</ele>
        <time>2016-03-13T07:45:13Z</time>
      </trkpt>
      <trkpt lat="50.14794" lon="3.64844">
        <ele>152.51</ele>
        <time>2016-03-13T07:45:26Z</time>
      </trkpt>
      <trkpt lat="50.14819" lon="3.64759">
        <ele>152.51</ele>
        <time>2016-03-13T07:45:41Z</time>
      </trkpt>
      <trkpt lat="50.14829" lon="3.6469">
        <ele>151.06</ele>
        <time>2016-03-13T07:45:54Z</time>
      </trkpt>
      <trkpt lat="50.14842" lon="3.64599">
        <ele>149.62</ele>
        <time>2016-03-13T07:46:09Z</time>
      </trkpt>
      <trkpt lat="50.14855" lon="3.64518">
        <ele>149.62</ele>
        <time>2016-03-13T07:46:25Z</time>
      </trkpt>
      <trkpt lat="50.14867" lon="3.64451">
        <ele>149.14</ele>
        <time>2016-03-13T07:46:38Z</time>
      </trkpt>
      <trkpt lat="50.14892" lon="3.64375">
        <ele>148.18</ele>
        <time>2016-03-13T07:46:53Z</time>
      </trkpt>
      <trkpt lat="50.14908" lon="3.64294">
        <ele>148.18</ele>
        <time>2016-03-13T07:47:09Z</time>
      </trkpt>
      <trkpt lat="50.14923" lon="3.64228">
        <ele>148.18</ele>
        <time>2016-03-13T07:47:24Z</time>
      </trkpt>
      <trkpt lat="50.14935" lon="3.64148">
        <ele>148.18</ele>
        <time>2016-03-13T07:47:40Z</time>
      </trkpt>
      <trkpt lat="50.14936" lon="3.64076">
        <ele>148.18</ele>
        <time>2016-03-13T07:47:55Z</time>
      </trkpt>
      <trkpt lat="50.14941" lon="3.64016">
        <ele>148.18</ele>
        <time>2016-03-13T07:48:07Z</time>
      </trkpt>
      <trkpt lat="50.14954" lon="3.63927">
        <ele>148.18</ele>
        <time>2016-03-13T07:48:26Z</time>
      </trkpt>
      <trkpt lat="50.14962" lon="3.63864">
        <ele>149.62</ele>
        <time>2016-03-13T07:48:42Z</time>
      </trkpt>
      <trkpt lat="50.14963" lon="3.63835">
        <ele>149.62</ele>
        <time>2016-03-13T07:48:51Z</time>
      </trkpt>
      <trkpt lat="50.14963" lon="3.63833">
        <ele>149.62</ele>
        <time>2016-03-13T07:48:52Z</time>
      </trkpt>
      <trkpt lat="50.14962" lon="3.6383">
        <ele>149.62</ele>
        <time>2016-03-13T07:48:53Z</time>
      </trkpt>
      <trkpt lat="50.14962" lon="3.63827">
        <ele>149.62</ele>
        <time>2016-03-13T07:48:54Z</time>
      </trkpt>
      <trkpt lat="50.14962" lon="3.63824">
        <ele>149.62</ele>
        <time>2016-03-13T07:48:55Z</time>
      </trkpt>
      <trkpt lat="50.14962" lon="3.6382">
        <ele>149.62</ele>
        <time>2016-03-13T07:48:56Z</time>
      </trkpt>
      <trkpt lat="50.1496" lon="3.63759">
        <ele>150.1</ele>
        <time>2016-03-13T07:49:11Z</time>
      </trkpt>
      <trkpt lat="50.14959" lon="3.63695">
        <ele>150.58</ele>
        <time>2016-03-13T07:49:26Z</time>
      </trkpt>
      <trkpt lat="50.14957" lon="3.63636">
        <ele>150.58</ele>
        <time>2016-03-13T07:49:41Z</time>
      </trkpt>
      <trkpt lat="50.14956" lon="3.63584">
        <ele>150.58</ele>
        <time>2016-03-13T07:49:54Z</time>
      </trkpt>
      <trkpt lat="50.14953" lon="3.63505">
        <ele>150.58</ele>
        <time>2016-03-13T07:50:09Z</time>
      </trkpt>
      <trkpt lat="50.14952" lon="3.6346">
        <ele>150.58</ele>
        <time>2016-03-13T07:50:16Z</time>
      </trkpt>
      <trkpt lat="50.14951" lon="3.63455">
        <ele>150.58</ele>
        <time>2016-03-13T07:50:17Z</time>
      </trkpt>
      <trkpt lat="50.14948" lon="3.63391">
        <ele>150.58</ele>
        <time>2016-03-13T07:50:29Z</time>
      </trkpt>
      <trkpt lat="50.14941" lon="3.63315">
        <ele>150.58</ele>
        <time>2016-03-13T07:50:43Z</time>
      </trkpt>
      <trkpt lat="50.1494" lon="3.63301">
        <ele>149.62</ele>
        <time>2016-03-13T07:50:46Z</time>
      </trkpt>
      <trkpt lat="50.14932" lon="3.63238">
        <ele>149.62</ele>
        <time>2016-03-13T07:50:59Z</time>
      </trkpt>
      <trkpt lat="50.1494" lon="3.63189">
        <ele>149.62</ele>
        <time>2016-03-13T07:51:11Z</time>
      </trkpt>
      <trkpt lat="50.14953" lon="3.63134">
        <ele>149.62</ele>
        <time>2016-03-13T07:51:24Z</time>
      </trkpt>
      <trkpt lat="50.14977" lon="3.63049">
        <ele>149.62</ele>
        <time>2016-03-13T07:51:41Z</time>
      </trkpt>
      <trkpt lat="50.15007" lon="3.6294">
        <ele>149.62</ele>
        <time>2016-03-13T07:52:01Z</time>
      </trkpt>
      <trkpt lat="50.15039" lon="3.62826">
        <ele>149.62</ele>
        <time>2016-03-13T07:52:22Z</time>
      </trkpt>
      <trkpt lat="50.15053" lon="3.62775">
        <ele>149.14</ele>
        <time>2016-03-13T07:52:33Z</time>
      </trkpt>
      <trkpt lat="50.15055" lon="3.62773">
        <ele>149.14</ele>
        <time>2016-03-13T07:52:34Z</time>
      </trkpt>
      <trkpt lat="50.15057" lon="3.62773">
        <ele>149.14</ele>
        <time>2016-03-13T07:52:35Z</time>
      </trkpt>
      <trkpt lat="50.15059" lon="3.62774">
        <ele>149.14</ele>
        <time>2016-03-13T07:52:36Z</time>
      </trkpt>
      <trkpt lat="50.15062" lon="3.62775">
        <ele>149.14</ele>
        <time>2016-03-13T07:52:37Z</time>
      </trkpt>
      <trkpt lat="50.15065" lon="3.62776">
        <ele>149.14</ele>
        <time>2016-03-13T07:52:38Z</time>
      </trkpt>
      <trkpt lat="50.15068" lon="3.62778">
        <ele>149.14</ele>
        <time>2016-03-13T07:52:39Z</time>
      </trkpt>
      <trkpt lat="50.15072" lon="3.62779">
        <ele>149.14</ele>
        <time>2016-03-13T07:52:40Z</time>
      </trkpt>
      <trkpt lat="50.15117" lon="3.62791">
        <ele>149.14</ele>
        <time>2016-03-13T07:52:53Z</time>
      </trkpt>
      <trkpt lat="50.15158" lon="3.62805">
        <ele>146.74</ele>
        <time>2016-03-13T07:53:05Z</time>
      </trkpt>
      <trkpt lat="50.15204" lon="3.62838">
        <ele>144.34</ele>
        <time>2016-03-13T07:53:18Z</time>
      </trkpt>
      <trkpt lat="50.15209" lon="3.62838">
        <ele>144.34</ele>
        <time>2016-03-13T07:53:19Z</time>
      </trkpt>
      <trkpt lat="50.15262" lon="3.62844">
        <ele>142.89</ele>
        <time>2016-03-13T07:53:33Z</time>
      </trkpt>
      <trkpt lat="50.15283" lon="3.62846">
        <ele>142.41</ele>
        <time>2016-03-13T07:53:43Z</time>
      </trkpt>
      <trkpt lat="50.15306" lon="3.62843">
        <ele>141.93</ele>
        <time>2016-03-13T07:53:53Z</time>
      </trkpt>
      <trkpt lat="50.15343" lon="3.62828">
        <ele>143.37</ele>
        <time>2016-03-13T07:54:07Z</time>
      </trkpt>
      <trkpt lat="50.15382" lon="3.62801">
        <ele>145.3</ele>
        <time>2016-03-13T07:54:22Z</time>
      </trkpt>
      <trkpt lat="50.15384" lon="3.628">
        <ele>145.78</ele>
        <time>2016-03-13T07:54:23Z</time>
      </trkpt>
      <trkpt lat="50.15386" lon="3.62797">
        <ele>145.78</ele>
        <time>2016-03-13T07:54:24Z</time>
      </trkpt>
      <trkpt lat="50.15386" lon="3.62794">
        <ele>145.78</ele>
        <time>2016-03-13T07:54:25Z</time>
      </trkpt>
      <trkpt lat="50.15386" lon="3.62792">
        <ele>146.26</ele>
        <time>2016-03-13T07:54:26Z</time>
      </trkpt>
      <trkpt lat="50.15386" lon="3.62789">
        <ele>146.26</ele>
        <time>2016-03-13T07:54:27Z</time>
      </trkpt>
      <trkpt lat="50.15388" lon="3.62785">
        <ele>146.26</ele>
        <time>2016-03-13T07:54:28Z</time>
      </trkpt>
      <trkpt lat="50.15391" lon="3.62783">
        <ele>146.26</ele>
        <time>2016-03-13T07:54:29Z</time>
      </trkpt>
      <trkpt lat="50.15394" lon="3.62782">
        <ele>146.26</ele>
        <time>2016-03-13T07:54:30Z</time>
      </trkpt>
      <trkpt lat="50.15397" lon="3.62781">
        <ele>146.74</ele>
        <time>2016-03-13T07:54:31Z</time>
      </trkpt>
      <trkpt lat="50.154" lon="3.62779">
        <ele>146.74</ele>
        <time>2016-03-13T07:54:32Z</time>
      </trkpt>
      <trkpt lat="50.15449" lon="3.62752">
        <ele>149.14</ele>
        <time>2016-03-13T07:54:46Z</time>
      </trkpt>
      <trkpt lat="50.15478" lon="3.62737">
        <ele>151.54</ele>
        <time>2016-03-13T07:54:59Z</time>
      </trkpt>
      <trkpt lat="50.15479" lon="3.62738">
        <ele>152.03</ele>
        <time>2016-03-13T07:55:00Z</time>
      </trkpt>
      <trkpt lat="50.1548" lon="3.62739">
        <ele>152.03</ele>
        <time>2016-03-13T07:55:01Z</time>
      </trkpt>
      <trkpt lat="50.15494" lon="3.62773">
        <ele>152.03</ele>
        <time>2016-03-13T07:55:14Z</time>
      </trkpt>
      <trkpt lat="50.15496" lon="3.62775">
        <ele>152.51</ele>
        <time>2016-03-13T07:55:15Z</time>
      </trkpt>
      <trkpt lat="50.15502" lon="3.62771">
        <ele>152.51</ele>
        <time>2016-03-13T07:55:18Z</time>
      </trkpt>
      <trkpt lat="50.15505" lon="3.62769">
        <ele>152.51</ele>
        <time>2016-03-13T07:55:19Z</time>
      </trkpt>
      <trkpt lat="50.15507" lon="3.62766">
        <ele>152.51</ele>
        <time>2016-03-13T07:55:20Z</time>
      </trkpt>
      <trkpt lat="50.15544" lon="3.6272">
        <ele>153.95</ele>
        <time>2016-03-13T07:55:36Z</time>
      </trkpt>
      <trkpt lat="50.15551" lon="3.62711">
        <ele>154.43</ele>
        <time>2016-03-13T07:55:40Z</time>
      </trkpt>
      <trkpt lat="50.15553" lon="3.6271">
        <ele>154.43</ele>
        <time>2016-03-13T07:55:41Z</time>
      </trkpt>
      <trkpt lat="50.15556" lon="3.62709">
        <ele>154.43</ele>
        <time>2016-03-13T07:55:42Z</time>
      </trkpt>
      <trkpt lat="50.15558" lon="3.62707">
        <ele>154.43</ele>
        <time>2016-03-13T07:55:43Z</time>
      </trkpt>
      <trkpt lat="50.1556" lon="3.62703">
        <ele>154.43</ele>
        <time>2016-03-13T07:55:44Z</time>
      </trkpt>
      <trkpt lat="50.15562" lon="3.627">
        <ele>154.43</ele>
        <time>2016-03-13T07:55:45Z</time>
      </trkpt>
      <trkpt lat="50.15596" lon="3.6264">
        <ele>154.91</ele>
        <time>2016-03-13T07:56:03Z</time>
      </trkpt>
      <trkpt lat="50.15603" lon="3.62631">
        <ele>154.91</ele>
        <time>2016-03-13T07:56:06Z</time>
      </trkpt>
      <trkpt lat="50.15604" lon="3.62627">
        <ele>154.91</ele>
        <time>2016-03-13T07:56:07Z</time>
      </trkpt>
      <trkpt lat="50.15603" lon="3.62623">
        <ele>154.91</ele>
        <time>2016-03-13T07:56:08Z</time>
      </trkpt>
      <trkpt lat="50.15601" lon="3.6262">
        <ele>154.91</ele>
        <time>2016-03-13T07:56:09Z</time>
      </trkpt>
      <trkpt lat="50.15599" lon="3.62617">
        <ele>154.91</ele>
        <time>2016-03-13T07:56:10Z</time>
      </trkpt>
      <trkpt lat="50.15597" lon="3.62613">
        <ele>154.91</ele>
        <time>2016-03-13T07:56:11Z</time>
      </trkpt>
      <trkpt lat="50.1558" lon="3.62588">
        <ele>154.91</ele>
        <time>2016-03-13T07:56:18Z</time>
      </trkpt>
      <trkpt lat="50.1558" lon="3.62584">
        <ele>154.91</ele>
        <time>2016-03-13T07:56:19Z</time>
      </trkpt>
      <trkpt lat="50.15582" lon="3.6258">
        <ele>154.91</ele>
        <time>2016-03-13T07:56:20Z</time>
      </trkpt>
      <trkpt lat="50.15601" lon="3.62537">
        <ele>153.95</ele>
        <time>2016-03-13T07:56:29Z</time>
      </trkpt>
      <trkpt lat="50.15612" lon="3.6252">
        <ele>152.99</ele>
        <time>2016-03-13T07:56:35Z</time>
      </trkpt>
      <trkpt lat="50.15614" lon="3.62522">
        <ele>152.99</ele>
        <time>2016-03-13T07:56:36Z</time>
      </trkpt>
      <trkpt lat="50.15615" lon="3.62523">
        <ele>152.99</ele>
        <time>2016-03-13T07:56:37Z</time>
      </trkpt>
      <trkpt lat="50.15618" lon="3.62524">
        <ele>152.99</ele>
        <time>2016-03-13T07:56:38Z</time>
      </trkpt>
      <trkpt lat="50.15619" lon="3.62522">
        <ele>152.99</ele>
        <time>2016-03-13T07:56:39Z</time>
      </trkpt>
      <trkpt lat="50.15621" lon="3.62519">
        <ele>152.99</ele>
        <time>2016-03-13T07:56:40Z</time>
      </trkpt>
      <trkpt lat="50.15623" lon="3.62514">
        <ele>152.99</ele>
        <time>2016-03-13T07:56:41Z</time>
      </trkpt>
      <trkpt lat="50.15625" lon="3.62509">
        <ele>152.99</ele>
        <time>2016-03-13T07:56:42Z</time>
      </trkpt>
      <trkpt lat="50.15627" lon="3.62504">
        <ele>152.51</ele>
        <time>2016-03-13T07:56:43Z</time>
      </trkpt>
      <trkpt lat="50.15634" lon="3.62486">
        <ele>152.51</ele>
        <time>2016-03-13T07:56:46Z</time>
      </trkpt>
      <trkpt lat="50.15674" lon="3.624">
        <ele>151.54</ele>
        <time>2016-03-13T07:56:59Z</time>
      </trkpt>
      <trkpt lat="50.15703" lon="3.62338">
        <ele>150.58</ele>
        <time>2016-03-13T07:57:09Z</time>
      </trkpt>
      <trkpt lat="50.15706" lon="3.62331">
        <ele>150.58</ele>
        <time>2016-03-13T07:57:10Z</time>
      </trkpt>
      <trkpt lat="50.15709" lon="3.62325">
        <ele>150.58</ele>
        <time>2016-03-13T07:57:11Z</time>
      </trkpt>
      <trkpt lat="50.15712" lon="3.62317">
        <ele>150.58</ele>
        <time>2016-03-13T07:57:12Z</time>
      </trkpt>
      <trkpt lat="50.15716" lon="3.62309">
        <ele>150.1</ele>
        <time>2016-03-13T07:57:13Z</time>
      </trkpt>
      <trkpt lat="50.15719" lon="3.62302">
        <ele>150.1</ele>
        <time>2016-03-13T07:57:14Z</time>
      </trkpt>
      <trkpt lat="50.15732" lon="3.62273">
        <ele>149.62</ele>
        <time>2016-03-13T07:57:18Z</time>
      </trkpt>
      <trkpt lat="50.15735" lon="3.62267">
        <ele>149.62</ele>
        <time>2016-03-13T07:57:19Z</time>
      </trkpt>
      <trkpt lat="50.15765" lon="3.622">
        <ele>149.14</ele>
        <time>2016-03-13T07:57:33Z</time>
      </trkpt>
      <trkpt lat="50.15787" lon="3.6215">
        <ele>147.7</ele>
        <time>2016-03-13T07:57:45Z</time>
      </trkpt>
      <trkpt lat="50.15787" lon="3.62145">
        <ele>147.7</ele>
        <time>2016-03-13T07:57:46Z</time>
      </trkpt>
      <trkpt lat="50.15787" lon="3.6214">
        <ele>147.7</ele>
        <time>2016-03-13T07:57:47Z</time>
      </trkpt>
      <trkpt lat="50.15786" lon="3.62135">
        <ele>147.7</ele>
        <time>2016-03-13T07:57:48Z</time>
      </trkpt>
      <trkpt lat="50.15786" lon="3.62131">
        <ele>147.7</ele>
        <time>2016-03-13T07:57:49Z</time>
      </trkpt>
      <trkpt lat="50.15785" lon="3.62126">
        <ele>147.22</ele>
        <time>2016-03-13T07:57:50Z</time>
      </trkpt>
      <trkpt lat="50.15779" lon="3.62068">
        <ele>144.82</ele>
        <time>2016-03-13T07:58:01Z</time>
      </trkpt>
      <trkpt lat="50.15775" lon="3.62035">
        <ele>144.34</ele>
        <time>2016-03-13T07:58:07Z</time>
      </trkpt>
      <trkpt lat="50.15777" lon="3.62031">
        <ele>143.85</ele>
        <time>2016-03-13T07:58:08Z</time>
      </trkpt>
      <trkpt lat="50.15778" lon="3.62026">
        <ele>143.85</ele>
        <time>2016-03-13T07:58:09Z</time>
      </trkpt>
      <trkpt lat="50.15779" lon="3.62021">
        <ele>143.85</ele>
        <time>2016-03-13T07:58:10Z</time>
      </trkpt>
      <trkpt lat="50.15781" lon="3.62015">
        <ele>143.85</ele>
        <time>2016-03-13T07:58:11Z</time>
      </trkpt>
      <trkpt lat="50.15783" lon="3.6201">
        <ele>143.85</ele>
        <time>2016-03-13T07:58:12Z</time>
      </trkpt>
      <trkpt lat="50.15784" lon="3.62004">
        <ele>143.85</ele>
        <time>2016-03-13T07:58:13Z</time>
      </trkpt>
      <trkpt lat="50.15797" lon="3.61966">
        <ele>143.37</ele>
        <time>2016-03-13T07:58:20Z</time>
      </trkpt>
      <trkpt lat="50.15799" lon="3.61961">
        <ele>143.37</ele>
        <time>2016-03-13T07:58:21Z</time>
      </trkpt>
      <trkpt lat="50.15801" lon="3.61955">
        <ele>143.37</ele>
        <time>2016-03-13T07:58:22Z</time>
      </trkpt>
      <trkpt lat="50.15804" lon="3.6195">
        <ele>143.37</ele>
        <time>2016-03-13T07:58:23Z</time>
      </trkpt>
      <trkpt lat="50.15806" lon="3.61945">
        <ele>143.37</ele>
        <time>2016-03-13T07:58:24Z</time>
      </trkpt>
      <trkpt lat="50.15809" lon="3.6194">
        <ele>143.37</ele>
        <time>2016-03-13T07:58:25Z</time>
      </trkpt>
      <trkpt lat="50.15814" lon="3.6193">
        <ele>143.37</ele>
        <time>2016-03-13T07:58:27Z</time>
      </trkpt>
      <trkpt lat="50.15817" lon="3.61924">
        <ele>142.89</ele>
        <time>2016-03-13T07:58:28Z</time>
      </trkpt>
      <trkpt lat="50.15819" lon="3.61919">
        <ele>142.89</ele>
        <time>2016-03-13T07:58:29Z</time>
      </trkpt>
      <trkpt lat="50.15822" lon="3.61913">
        <ele>142.89</ele>
        <time>2016-03-13T07:58:30Z</time>
      </trkpt>
      <trkpt lat="50.15824" lon="3.61908">
        <ele>142.89</ele>
        <time>2016-03-13T07:58:31Z</time>
      </trkpt>
      <trkpt lat="50.15827" lon="3.61903">
        <ele>142.41</ele>
        <time>2016-03-13T07:58:32Z</time>
      </trkpt>
      <trkpt lat="50.1583" lon="3.61897">
        <ele>142.41</ele>
        <time>2016-03-13T07:58:33Z</time>
      </trkpt>
      <trkpt lat="50.15861" lon="3.61841">
        <ele>141.45</ele>
        <time>2016-03-13T07:58:45Z</time>
      </trkpt>
      <trkpt lat="50.15883" lon="3.61798">
        <ele>140.49</ele>
        <time>2016-03-13T07:58:56Z</time>
      </trkpt>
      <trkpt lat="50.15905" lon="3.61747">
        <ele>140.49</ele>
        <time>2016-03-13T07:59:06Z</time>
      </trkpt>
      <trkpt lat="50.15935" lon="3.61677">
        <ele>140.49</ele>
        <time>2016-03-13T07:59:19Z</time>
      </trkpt>
      <trkpt lat="50.15956" lon="3.616">
        <ele>140.01</ele>
        <time>2016-03-13T07:59:32Z</time>
      </trkpt>
      <trkpt lat="50.15962" lon="3.61569">
        <ele>140.01</ele>
        <time>2016-03-13T07:59:39Z</time>
      </trkpt>
      <trkpt lat="50.1596" lon="3.61566">
        <ele>140.01</ele>
        <time>2016-03-13T07:59:40Z</time>
      </trkpt>
      <trkpt lat="50.15958" lon="3.61565">
        <ele>140.01</ele>
        <time>2016-03-13T07:59:41Z</time>
      </trkpt>
      <trkpt lat="50.15956" lon="3.61562">
        <ele>140.01</ele>
        <time>2016-03-13T07:59:42Z</time>
      </trkpt>
      <trkpt lat="50.15955" lon="3.61559">
        <ele>140.01</ele>
        <time>2016-03-13T07:59:43Z</time>
      </trkpt>
      <trkpt lat="50.15954" lon="3.61556">
        <ele>140.01</ele>
        <time>2016-03-13T07:59:44Z</time>
      </trkpt>
      <trkpt lat="50.15955" lon="3.6155">
        <ele>139.53</ele>
        <time>2016-03-13T07:59:45Z</time>
      </trkpt>
      <trkpt lat="50.15955" lon="3.61545">
        <ele>139.53</ele>
        <time>2016-03-13T07:59:46Z</time>
      </trkpt>
      <trkpt lat="50.15961" lon="3.61459">
        <ele>138.57</ele>
        <time>2016-03-13T08:00:01Z</time>
      </trkpt>
      <trkpt lat="50.15969" lon="3.61394">
        <ele>138.09</ele>
        <time>2016-03-13T08:00:13Z</time>
      </trkpt>
      <trkpt lat="50.15975" lon="3.61346">
        <ele>137.61</ele>
        <time>2016-03-13T08:00:22Z</time>
      </trkpt>
      <trkpt lat="50.15974" lon="3.61289">
        <ele>137.13</ele>
        <time>2016-03-13T08:00:33Z</time>
      </trkpt>
      <trkpt lat="50.15976" lon="3.61219">
        <ele>137.13</ele>
        <time>2016-03-13T08:00:43Z</time>
      </trkpt>
      <trkpt lat="50.15976" lon="3.61177">
        <ele>137.13</ele>
        <time>2016-03-13T08:00:49Z</time>
      </trkpt>
      <trkpt lat="50.1599" lon="3.6109">
        <ele>137.13</ele>
        <time>2016-03-13T08:01:02Z</time>
      </trkpt>
      <trkpt lat="50.15992" lon="3.61076">
        <ele>136.16</ele>
        <time>2016-03-13T08:01:04Z</time>
      </trkpt>
      <trkpt lat="50.15993" lon="3.61069">
        <ele>136.16</ele>
        <time>2016-03-13T08:01:05Z</time>
      </trkpt>
      <trkpt lat="50.15994" lon="3.61061">
        <ele>136.16</ele>
        <time>2016-03-13T08:01:06Z</time>
      </trkpt>
      <trkpt lat="50.15996" lon="3.61054">
        <ele>136.16</ele>
        <time>2016-03-13T08:01:07Z</time>
      </trkpt>
      <trkpt lat="50.15997" lon="3.61048">
        <ele>136.16</ele>
        <time>2016-03-13T08:01:08Z</time>
      </trkpt>
      <trkpt lat="50.15998" lon="3.61041">
        <ele>136.16</ele>
        <time>2016-03-13T08:01:09Z</time>
      </trkpt>
      <trkpt lat="50.15998" lon="3.61035">
        <ele>136.16</ele>
        <time>2016-03-13T08:01:10Z</time>
      </trkpt>
      <trkpt lat="50.15997" lon="3.61029">
        <ele>136.16</ele>
        <time>2016-03-13T08:01:11Z</time>
      </trkpt>
      <trkpt lat="50.15995" lon="3.61024">
        <ele>136.64</ele>
        <time>2016-03-13T08:01:12Z</time>
      </trkpt>
      <trkpt lat="50.15992" lon="3.6102">
        <ele>136.64</ele>
        <time>2016-03-13T08:01:13Z</time>
      </trkpt>
      <trkpt lat="50.15989" lon="3.61017">
        <ele>136.64</ele>
        <time>2016-03-13T08:01:14Z</time>
      </trkpt>
      <trkpt lat="50.15986" lon="3.61014">
        <ele>136.64</ele>
        <time>2016-03-13T08:01:15Z</time>
      </trkpt>
      <trkpt lat="50.15944" lon="3.6097">
        <ele>136.64</ele>
        <time>2016-03-13T08:01:29Z</time>
      </trkpt>
      <trkpt lat="50.15901" lon="3.60985">
        <ele>136.64</ele>
        <time>2016-03-13T08:01:41Z</time>
      </trkpt>
      <trkpt lat="50.15897" lon="3.60986">
        <ele>136.64</ele>
        <time>2016-03-13T08:01:42Z</time>
      </trkpt>
      <trkpt lat="50.15834" lon="3.60988">
        <ele>136.64</ele>
        <time>2016-03-13T08:01:58Z</time>
      </trkpt>
      <trkpt lat="50.15822" lon="3.60991">
        <ele>136.64</ele>
        <time>2016-03-13T08:02:01Z</time>
      </trkpt>
      <trkpt lat="50.15783" lon="3.61012">
        <ele>136.64</ele>
        <time>2016-03-13T08:02:11Z</time>
      </trkpt>
      <trkpt lat="50.15759" lon="3.61025">
        <ele>136.64</ele>
        <time>2016-03-13T08:02:17Z</time>
      </trkpt>
      <trkpt lat="50.15686" lon="3.61074">
        <ele>136.64</ele>
        <time>2016-03-13T08:02:35Z</time>
      </trkpt>
      <trkpt lat="50.15644" lon="3.61099">
        <ele>137.61</ele>
        <time>2016-03-13T08:02:45Z</time>
      </trkpt>
      <trkpt lat="50.15635" lon="3.61105">
        <ele>137.61</ele>
        <time>2016-03-13T08:02:47Z</time>
      </trkpt>
      <trkpt lat="50.15631" lon="3.61108">
        <ele>137.61</ele>
        <time>2016-03-13T08:02:48Z</time>
      </trkpt>
      <trkpt lat="50.15626" lon="3.61109">
        <ele>137.61</ele>
        <time>2016-03-13T08:02:49Z</time>
      </trkpt>
      <trkpt lat="50.15558" lon="3.61156">
        <ele>139.05</ele>
        <time>2016-03-13T08:03:05Z</time>
      </trkpt>
      <trkpt lat="50.15554" lon="3.6116">
        <ele>139.05</ele>
        <time>2016-03-13T08:03:06Z</time>
      </trkpt>
      <trkpt lat="50.15481" lon="3.61237">
        <ele>139.05</ele>
        <time>2016-03-13T08:03:25Z</time>
      </trkpt>
      <trkpt lat="50.15477" lon="3.6124">
        <ele>139.05</ele>
        <time>2016-03-13T08:03:26Z</time>
      </trkpt>
      <trkpt lat="50.15473" lon="3.61242">
        <ele>139.05</ele>
        <time>2016-03-13T08:03:27Z</time>
      </trkpt>
      <trkpt lat="50.15468" lon="3.6124">
        <ele>139.05</ele>
        <time>2016-03-13T08:03:28Z</time>
      </trkpt>
      <trkpt lat="50.15464" lon="3.61236">
        <ele>138.57</ele>
        <time>2016-03-13T08:03:29Z</time>
      </trkpt>
      <trkpt lat="50.1546" lon="3.61232">
        <ele>138.57</ele>
        <time>2016-03-13T08:03:30Z</time>
      </trkpt>
      <trkpt lat="50.15457" lon="3.61226">
        <ele>138.57</ele>
        <time>2016-03-13T08:03:31Z</time>
      </trkpt>
      <trkpt lat="50.15413" lon="3.61158">
        <ele>139.05</ele>
        <time>2016-03-13T08:03:44Z</time>
      </trkpt>
      <trkpt lat="50.15403" lon="3.61144">
        <ele>139.05</ele>
        <time>2016-03-13T08:03:47Z</time>
      </trkpt>
      <trkpt lat="50.15331" lon="3.6106">
        <ele>139.05</ele>
        <time>2016-03-13T08:04:05Z</time>
      </trkpt>
      <trkpt lat="50.15313" lon="3.61049">
        <ele>139.05</ele>
        <time>2016-03-13T08:04:09Z</time>
      </trkpt>
      <trkpt lat="50.15309" lon="3.61048">
        <ele>139.05</ele>
        <time>2016-03-13T08:04:10Z</time>
      </trkpt>
      <trkpt lat="50.15304" lon="3.61047">
        <ele>139.05</ele>
        <time>2016-03-13T08:04:11Z</time>
      </trkpt>
      <trkpt lat="50.15299" lon="3.61047">
        <ele>139.05</ele>
        <time>2016-03-13T08:04:12Z</time>
      </trkpt>
      <trkpt lat="50.15294" lon="3.61048">
        <ele>139.05</ele>
        <time>2016-03-13T08:04:13Z</time>
      </trkpt>
      <trkpt lat="50.15289" lon="3.61049">
        <ele>139.05</ele>
        <time>2016-03-13T08:04:14Z</time>
      </trkpt>
      <trkpt lat="50.15204" lon="3.61078">
        <ele>140.01</ele>
        <time>2016-03-13T08:04:32Z</time>
      </trkpt>
      <trkpt lat="50.15164" lon="3.6108">
        <ele>140.49</ele>
        <time>2016-03-13T08:04:42Z</time>
      </trkpt>
      <trkpt lat="50.15164" lon="3.61085">
        <ele>140.49</ele>
        <time>2016-03-13T08:04:43Z</time>
      </trkpt>
      <trkpt lat="50.15164" lon="3.61135">
        <ele>140.49</ele>
        <time>2016-03-13T08:04:51Z</time>
      </trkpt>
      <trkpt lat="50.15162" lon="3.6115">
        <ele>140.49</ele>
        <time>2016-03-13T08:04:53Z</time>
      </trkpt>
      <trkpt lat="50.15158" lon="3.61172">
        <ele>140.49</ele>
        <time>2016-03-13T08:04:56Z</time>
      </trkpt>
      <trkpt lat="50.15156" lon="3.61179">
        <ele>140.49</ele>
        <time>2016-03-13T08:04:57Z</time>
      </trkpt>
      <trkpt lat="50.15114" lon="3.6129">
        <ele>140.49</ele>
        <time>2016-03-13T08:05:13Z</time>
      </trkpt>
      <trkpt lat="50.15111" lon="3.61296">
        <ele>140.49</ele>
        <time>2016-03-13T08:05:14Z</time>
      </trkpt>
      <trkpt lat="50.15107" lon="3.61302">
        <ele>140.49</ele>
        <time>2016-03-13T08:05:15Z</time>
      </trkpt>
      <trkpt lat="50.15042" lon="3.61385">
        <ele>139.05</ele>
        <time>2016-03-13T08:05:31Z</time>
      </trkpt>
      <trkpt lat="50.15006" lon="3.6143">
        <ele>139.53</ele>
        <time>2016-03-13T08:05:40Z</time>
      </trkpt>
      <trkpt lat="50.15002" lon="3.61433">
        <ele>139.53</ele>
        <time>2016-03-13T08:05:41Z</time>
      </trkpt>
      <trkpt lat="50.14993" lon="3.61438">
        <ele>139.53</ele>
        <time>2016-03-13T08:05:43Z</time>
      </trkpt>
      <trkpt lat="50.14988" lon="3.61439">
        <ele>139.53</ele>
        <time>2016-03-13T08:05:44Z</time>
      </trkpt>
      <trkpt lat="50.14983" lon="3.61439">
        <ele>139.53</ele>
        <time>2016-03-13T08:05:45Z</time>
      </trkpt>
      <trkpt lat="50.14978" lon="3.61437">
        <ele>139.53</ele>
        <time>2016-03-13T08:05:46Z</time>
      </trkpt>
      <trkpt lat="50.14973" lon="3.61434">
        <ele>140.49</ele>
        <time>2016-03-13T08:05:47Z</time>
      </trkpt>
      <trkpt lat="50.14969" lon="3.6143">
        <ele>140.49</ele>
        <time>2016-03-13T08:05:48Z</time>
      </trkpt>
      <trkpt lat="50.14964" lon="3.61425">
        <ele>140.49</ele>
        <time>2016-03-13T08:05:49Z</time>
      </trkpt>
      <trkpt lat="50.1496" lon="3.61419">
        <ele>140.49</ele>
        <time>2016-03-13T08:05:50Z</time>
      </trkpt>
      <trkpt lat="50.14957" lon="3.61414">
        <ele>140.49</ele>
        <time>2016-03-13T08:05:51Z</time>
      </trkpt>
      <trkpt lat="50.14954" lon="3.61407">
        <ele>140.49</ele>
        <time>2016-03-13T08:05:52Z</time>
      </trkpt>
      <trkpt lat="50.14902" lon="3.61297">
        <ele>141.45</ele>
        <time>2016-03-13T08:06:11Z</time>
      </trkpt>
      <trkpt lat="50.14854" lon="3.61197">
        <ele>143.37</ele>
        <time>2016-03-13T08:06:28Z</time>
      </trkpt>
      <trkpt lat="50.14851" lon="3.61192">
        <ele>143.37</ele>
        <time>2016-03-13T08:06:29Z</time>
      </trkpt>
      <trkpt lat="50.14847" lon="3.61188">
        <ele>143.37</ele>
        <time>2016-03-13T08:06:30Z</time>
      </trkpt>
      <trkpt lat="50.14843" lon="3.61186">
        <ele>143.85</ele>
        <time>2016-03-13T08:06:31Z</time>
      </trkpt>
      <trkpt lat="50.14838" lon="3.61187">
        <ele>143.85</ele>
        <time>2016-03-13T08:06:32Z</time>
      </trkpt>
      <trkpt lat="50.14834" lon="3.6119">
        <ele>143.85</ele>
        <time>2016-03-13T08:06:33Z</time>
      </trkpt>
      <trkpt lat="50.14831" lon="3.61194">
        <ele>144.34</ele>
        <time>2016-03-13T08:06:34Z</time>
      </trkpt>
      <trkpt lat="50.14828" lon="3.61198">
        <ele>144.34</ele>
        <time>2016-03-13T08:06:35Z</time>
      </trkpt>
      <trkpt lat="50.14817" lon="3.6121">
        <ele>144.34</ele>
        <time>2016-03-13T08:06:38Z</time>
      </trkpt>
      <trkpt lat="50.14814" lon="3.61214">
        <ele>144.34</ele>
        <time>2016-03-13T08:06:39Z</time>
      </trkpt>
      <trkpt lat="50.14799" lon="3.61231">
        <ele>144.82</ele>
        <time>2016-03-13T08:06:43Z</time>
      </trkpt>
      <trkpt lat="50.14791" lon="3.61241">
        <ele>144.82</ele>
        <time>2016-03-13T08:06:45Z</time>
      </trkpt>
      <trkpt lat="50.14788" lon="3.61246">
        <ele>144.82</ele>
        <time>2016-03-13T08:06:46Z</time>
      </trkpt>
      <trkpt lat="50.14773" lon="3.61264">
        <ele>144.34</ele>
        <time>2016-03-13T08:06:50Z</time>
      </trkpt>
      <trkpt lat="50.14758" lon="3.61285">
        <ele>143.37</ele>
        <time>2016-03-13T08:06:54Z</time>
      </trkpt>
      <trkpt lat="50.1474" lon="3.61312">
        <ele>142.89</ele>
        <time>2016-03-13T08:06:59Z</time>
      </trkpt>
      <trkpt lat="50.14735" lon="3.61313">
        <ele>142.41</ele>
        <time>2016-03-13T08:07:00Z</time>
      </trkpt>
      <trkpt lat="50.14731" lon="3.6131">
        <ele>142.41</ele>
        <time>2016-03-13T08:07:01Z</time>
      </trkpt>
      <trkpt lat="50.14728" lon="3.61306">
        <ele>142.41</ele>
        <time>2016-03-13T08:07:02Z</time>
      </trkpt>
      <trkpt lat="50.14724" lon="3.61301">
        <ele>142.41</ele>
        <time>2016-03-13T08:07:03Z</time>
      </trkpt>
      <trkpt lat="50.14721" lon="3.61296">
        <ele>142.41</ele>
        <time>2016-03-13T08:07:04Z</time>
      </trkpt>
      <trkpt lat="50.14706" lon="3.61272">
        <ele>142.41</ele>
        <time>2016-03-13T08:07:09Z</time>
      </trkpt>
      <trkpt lat="50.14681" lon="3.61233">
        <ele>143.85</ele>
        <time>2016-03-13T08:07:17Z</time>
      </trkpt>
      <trkpt lat="50.14651" lon="3.61187">
        <ele>144.34</ele>
        <time>2016-03-13T08:07:27Z</time>
      </trkpt>
      <trkpt lat="50.14647" lon="3.61182">
        <ele>144.82</ele>
        <time>2016-03-13T08:07:28Z</time>
      </trkpt>
      <trkpt lat="50.14606" lon="3.61118">
        <ele>144.82</ele>
        <time>2016-03-13T08:07:42Z</time>
      </trkpt>
      <trkpt lat="50.14568" lon="3.61063">
        <ele>144.82</ele>
        <time>2016-03-13T08:07:55Z</time>
      </trkpt>
      <trkpt lat="50.14523" lon="3.60996">
        <ele>144.82</ele>
        <time>2016-03-13T08:08:11Z</time>
      </trkpt>
      <trkpt lat="50.14491" lon="3.60949">
        <ele>146.26</ele>
        <time>2016-03-13T08:08:23Z</time>
      </trkpt>
      <trkpt lat="50.14455" lon="3.60895">
        <ele>148.66</ele>
        <time>2016-03-13T08:08:37Z</time>
      </trkpt>
      <trkpt lat="50.14424" lon="3.60847">
        <ele>150.58</ele>
        <time>2016-03-13T08:08:52Z</time>
      </trkpt>
      <trkpt lat="50.14398" lon="3.6081">
        <ele>151.54</ele>
        <time>2016-03-13T08:09:02Z</time>
      </trkpt>
      <trkpt lat="50.14373" lon="3.60772">
        <ele>152.51</ele>
        <time>2016-03-13T08:09:14Z</time>
      </trkpt>
      <trkpt lat="50.14338" lon="3.60717">
        <ele>152.99</ele>
        <time>2016-03-13T08:09:29Z</time>
      </trkpt>
      <trkpt lat="50.14311" lon="3.60673">
        <ele>153.47</ele>
        <time>2016-03-13T08:09:42Z</time>
      </trkpt>
      <trkpt lat="50.14279" lon="3.60629">
        <ele>153.47</ele>
        <time>2016-03-13T08:09:57Z</time>
      </trkpt>
      <trkpt lat="50.14276" lon="3.60623">
        <ele>153.47</ele>
        <time>2016-03-13T08:10:00Z</time>
      </trkpt>
      <trkpt lat="50.14276" lon="3.6062">
        <ele>153.47</ele>
        <time>2016-03-13T08:10:01Z</time>
      </trkpt>
      <trkpt lat="50.14275" lon="3.60617">
        <ele>153.47</ele>
        <time>2016-03-13T08:10:02Z</time>
      </trkpt>
      <trkpt lat="50.14273" lon="3.60615">
        <ele>153.47</ele>
        <time>2016-03-13T08:10:03Z</time>
      </trkpt>
      <trkpt lat="50.14271" lon="3.60612">
        <ele>153.47</ele>
        <time>2016-03-13T08:10:04Z</time>
      </trkpt>
      <trkpt lat="50.14245" lon="3.6057">
        <ele>152.03</ele>
        <time>2016-03-13T08:10:17Z</time>
      </trkpt>
      <trkpt lat="50.14219" lon="3.60528">
        <ele>150.58</ele>
        <time>2016-03-13T08:10:28Z</time>
      </trkpt>
      <trkpt lat="50.14216" lon="3.60523">
        <ele>149.62</ele>
        <time>2016-03-13T08:10:29Z</time>
      </trkpt>
      <trkpt lat="50.14213" lon="3.60518">
        <ele>149.62</ele>
        <time>2016-03-13T08:10:30Z</time>
      </trkpt>
      <trkpt lat="50.14175" lon="3.6046">
        <ele>147.7</ele>
        <time>2016-03-13T08:10:45Z</time>
      </trkpt>
      <trkpt lat="50.14157" lon="3.60428">
        <ele>147.22</ele>
        <time>2016-03-13T08:10:56Z</time>
      </trkpt>
      <trkpt lat="50.14155" lon="3.60428">
        <ele>147.22</ele>
        <time>2016-03-13T08:10:57Z</time>
      </trkpt>
      <trkpt lat="50.14153" lon="3.60428">
        <ele>147.22</ele>
        <time>2016-03-13T08:10:58Z</time>
      </trkpt>
      <trkpt lat="50.14151" lon="3.60428">
        <ele>147.22</ele>
        <time>2016-03-13T08:10:59Z</time>
      </trkpt>
      <trkpt lat="50.14149" lon="3.60429">
        <ele>147.22</ele>
        <time>2016-03-13T08:11:00Z</time>
      </trkpt>
      <trkpt lat="50.14147" lon="3.6043">
        <ele>147.22</ele>
        <time>2016-03-13T08:11:01Z</time>
      </trkpt>
      <trkpt lat="50.14115" lon="3.60456">
        <ele>148.18</ele>
        <time>2016-03-13T08:11:15Z</time>
      </trkpt>
      <trkpt lat="50.14075" lon="3.60487">
        <ele>150.1</ele>
        <time>2016-03-13T08:11:30Z</time>
      </trkpt>
      <trkpt lat="50.14044" lon="3.60511">
        <ele>152.03</ele>
        <time>2016-03-13T08:11:42Z</time>
      </trkpt>
      <trkpt lat="50.14011" lon="3.60536">
        <ele>152.99</ele>
        <time>2016-03-13T08:11:56Z</time>
      </trkpt>
      <trkpt lat="50.13979" lon="3.60564">
        <ele>153.47</ele>
        <time>2016-03-13T08:12:12Z</time>
      </trkpt>
      <trkpt lat="50.13973" lon="3.60575">
        <ele>153.95</ele>
        <time>2016-03-13T08:12:17Z</time>
      </trkpt>
      <trkpt lat="50.13964" lon="3.60578">
        <ele>153.95</ele>
        <time>2016-03-13T08:12:22Z</time>
      </trkpt>
      <trkpt lat="50.13962" lon="3.6058">
        <ele>153.95</ele>
        <time>2016-03-13T08:12:23Z</time>
      </trkpt>
      <trkpt lat="50.1396" lon="3.60581">
        <ele>153.95</ele>
        <time>2016-03-13T08:12:24Z</time>
      </trkpt>
      <trkpt lat="50.13935" lon="3.60597">
        <ele>154.43</ele>
        <time>2016-03-13T08:12:38Z</time>
      </trkpt>
      <trkpt lat="50.13925" lon="3.60604">
        <ele>154.43</ele>
        <time>2016-03-13T08:12:57Z</time>
      </trkpt>
      <trkpt lat="50.13901" lon="3.60621">
        <ele>154.43</ele>
        <time>2016-03-13T08:13:08Z</time>
      </trkpt>
      <trkpt lat="50.13897" lon="3.60624">
        <ele>154.43</ele>
        <time>2016-03-13T08:13:10Z</time>
      </trkpt>
      <trkpt lat="50.13895" lon="3.60625">
        <ele>154.43</ele>
        <time>2016-03-13T08:13:11Z</time>
      </trkpt>
      <trkpt lat="50.13893" lon="3.60626">
        <ele>154.43</ele>
        <time>2016-03-13T08:13:12Z</time>
      </trkpt>
      <trkpt lat="50.13891" lon="3.60628">
        <ele>154.43</ele>
        <time>2016-03-13T08:13:13Z</time>
      </trkpt>
      <trkpt lat="50.13889" lon="3.6063">
        <ele>154.91</ele>
        <time>2016-03-13T08:13:14Z</time>
      </trkpt>
      <trkpt lat="50.13849" lon="3.60659">
        <ele>154.91</ele>
        <time>2016-03-13T08:13:29Z</time>
      </trkpt>
      <trkpt lat="50.13796" lon="3.60703">
        <ele>152.51</ele>
        <time>2016-03-13T08:13:46Z</time>
      </trkpt>
      <trkpt lat="50.13751" lon="3.60737">
        <ele>150.58</ele>
        <time>2016-03-13T08:13:56Z</time>
      </trkpt>
      <trkpt lat="50.13746" lon="3.6074">
        <ele>150.58</ele>
        <time>2016-03-13T08:13:57Z</time>
      </trkpt>
      <trkpt lat="50.13741" lon="3.60744">
        <ele>150.58</ele>
        <time>2016-03-13T08:13:58Z</time>
      </trkpt>
      <trkpt lat="50.13702" lon="3.60772">
        <ele>149.62</ele>
        <time>2016-03-13T08:14:07Z</time>
      </trkpt>
      <trkpt lat="50.13698" lon="3.60775">
        <ele>149.62</ele>
        <time>2016-03-13T08:14:08Z</time>
      </trkpt>
      <trkpt lat="50.13653" lon="3.60811">
        <ele>149.62</ele>
        <time>2016-03-13T08:14:22Z</time>
      </trkpt>
      <trkpt lat="50.13603" lon="3.60849">
        <ele>152.51</ele>
        <time>2016-03-13T08:14:38Z</time>
      </trkpt>
      <trkpt lat="50.13566" lon="3.60876">
        <ele>152.99</ele>
        <time>2016-03-13T08:14:49Z</time>
      </trkpt>
      <trkpt lat="50.1352" lon="3.60912">
        <ele>153.47</ele>
        <time>2016-03-13T08:15:04Z</time>
      </trkpt>
      <trkpt lat="50.13465" lon="3.60955">
        <ele>153.95</ele>
        <time>2016-03-13T08:15:21Z</time>
      </trkpt>
      <trkpt lat="50.13418" lon="3.6099">
        <ele>154.91</ele>
        <time>2016-03-13T08:15:35Z</time>
      </trkpt>
      <trkpt lat="50.1339" lon="3.6101">
        <ele>154.91</ele>
        <time>2016-03-13T08:15:43Z</time>
      </trkpt>
      <trkpt lat="50.13386" lon="3.61013">
        <ele>154.91</ele>
        <time>2016-03-13T08:15:44Z</time>
      </trkpt>
      <trkpt lat="50.13348" lon="3.61041">
        <ele>154.91</ele>
        <time>2016-03-13T08:15:56Z</time>
      </trkpt>
      <trkpt lat="50.13292" lon="3.61082">
        <ele>152.03</ele>
        <time>2016-03-13T08:16:12Z</time>
      </trkpt>
      <trkpt lat="50.13244" lon="3.61117">
        <ele>150.1</ele>
        <time>2016-03-13T08:16:24Z</time>
      </trkpt>
      <trkpt lat="50.13223" lon="3.61134">
        <ele>149.62</ele>
        <time>2016-03-13T08:16:29Z</time>
      </trkpt>
      <trkpt lat="50.13196" lon="3.61152">
        <ele>148.66</ele>
        <time>2016-03-13T08:16:36Z</time>
      </trkpt>
      <trkpt lat="50.13192" lon="3.61155">
        <ele>148.66</ele>
        <time>2016-03-13T08:16:37Z</time>
      </trkpt>
      <trkpt lat="50.13189" lon="3.61158">
        <ele>148.66</ele>
        <time>2016-03-13T08:16:38Z</time>
      </trkpt>
      <trkpt lat="50.13143" lon="3.61196">
        <ele>148.66</ele>
        <time>2016-03-13T08:16:52Z</time>
      </trkpt>
      <trkpt lat="50.13101" lon="3.61229">
        <ele>151.06</ele>
        <time>2016-03-13T08:17:06Z</time>
      </trkpt>
      <trkpt lat="50.13097" lon="3.6123">
        <ele>151.54</ele>
        <time>2016-03-13T08:17:07Z</time>
      </trkpt>
      <trkpt lat="50.13093" lon="3.61228">
        <ele>151.54</ele>
        <time>2016-03-13T08:17:08Z</time>
      </trkpt>
      <trkpt lat="50.1309" lon="3.61224">
        <ele>151.54</ele>
        <time>2016-03-13T08:17:09Z</time>
      </trkpt>
      <trkpt lat="50.13088" lon="3.61219">
        <ele>151.54</ele>
        <time>2016-03-13T08:17:10Z</time>
      </trkpt>
      <trkpt lat="50.13086" lon="3.61215">
        <ele>151.54</ele>
        <time>2016-03-13T08:17:11Z</time>
      </trkpt>
      <trkpt lat="50.13084" lon="3.61211">
        <ele>151.54</ele>
        <time>2016-03-13T08:17:12Z</time>
      </trkpt>
      <trkpt lat="50.13081" lon="3.61207">
        <ele>152.03</ele>
        <time>2016-03-13T08:17:13Z</time>
      </trkpt>
      <trkpt lat="50.13075" lon="3.61199">
        <ele>152.03</ele>
        <time>2016-03-13T08:17:15Z</time>
      </trkpt>
      <trkpt lat="50.13052" lon="3.61143">
        <ele>152.51</ele>
        <time>2016-03-13T08:17:26Z</time>
      </trkpt>
      <trkpt lat="50.13038" lon="3.61101">
        <ele>152.99</ele>
        <time>2016-03-13T08:17:33Z</time>
      </trkpt>
      <trkpt lat="50.13034" lon="3.6109">
        <ele>153.47</ele>
        <time>2016-03-13T08:17:35Z</time>
      </trkpt>
      <trkpt lat="50.13002" lon="3.60993">
        <ele>153.47</ele>
        <time>2016-03-13T08:17:50Z</time>
      </trkpt>
      <trkpt lat="50.12958" lon="3.60871">
        <ele>150.1</ele>
        <time>2016-03-13T08:18:06Z</time>
      </trkpt>
      <trkpt lat="50.12894" lon="3.60722">
        <ele>148.66</ele>
        <time>2016-03-13T08:18:25Z</time>
      </trkpt>
      <trkpt lat="50.12876" lon="3.6069">
        <ele>148.18</ele>
        <time>2016-03-13T08:18:30Z</time>
      </trkpt>
      <trkpt lat="50.12863" lon="3.60667">
        <ele>148.18</ele>
        <time>2016-03-13T08:18:34Z</time>
      </trkpt>
      <trkpt lat="50.12858" lon="3.60664">
        <ele>148.18</ele>
        <time>2016-03-13T08:18:35Z</time>
      </trkpt>
      <trkpt lat="50.12842" lon="3.60664">
        <ele>148.18</ele>
        <time>2016-03-13T08:18:38Z</time>
      </trkpt>
      <trkpt lat="50.12776" lon="3.60687">
        <ele>149.62</ele>
        <time>2016-03-13T08:18:51Z</time>
      </trkpt>
      <trkpt lat="50.12702" lon="3.60712">
        <ele>150.1</ele>
        <time>2016-03-13T08:19:05Z</time>
      </trkpt>
      <trkpt lat="50.12621" lon="3.60742">
        <ele>151.54</ele>
        <time>2016-03-13T08:19:21Z</time>
      </trkpt>
      <trkpt lat="50.12608" lon="3.60746">
        <ele>152.51</ele>
        <time>2016-03-13T08:19:25Z</time>
      </trkpt>
      <trkpt lat="50.12605" lon="3.60745">
        <ele>152.51</ele>
        <time>2016-03-13T08:19:26Z</time>
      </trkpt>
      <trkpt lat="50.12602" lon="3.60743">
        <ele>152.99</ele>
        <time>2016-03-13T08:19:27Z</time>
      </trkpt>
      <trkpt lat="50.12599" lon="3.6074">
        <ele>152.99</ele>
        <time>2016-03-13T08:19:28Z</time>
      </trkpt>
      <trkpt lat="50.12592" lon="3.60724">
        <ele>152.99</ele>
        <time>2016-03-13T08:19:32Z</time>
      </trkpt>
      <trkpt lat="50.12577" lon="3.60691">
        <ele>151.54</ele>
        <time>2016-03-13T08:19:38Z</time>
      </trkpt>
      <trkpt lat="50.12539" lon="3.60607">
        <ele>152.51</ele>
        <time>2016-03-13T08:19:50Z</time>
      </trkpt>
      <trkpt lat="50.12509" lon="3.60544">
        <ele>155.87</ele>
        <time>2016-03-13T08:19:59Z</time>
      </trkpt>
      <trkpt lat="50.12488" lon="3.605">
        <ele>156.83</ele>
        <time>2016-03-13T08:20:06Z</time>
      </trkpt>
      <trkpt lat="50.12457" lon="3.60431">
        <ele>157.79</ele>
        <time>2016-03-13T08:20:19Z</time>
      </trkpt>
      <trkpt lat="50.12423" lon="3.60358">
        <ele>158.27</ele>
        <time>2016-03-13T08:20:34Z</time>
      </trkpt>
      <trkpt lat="50.12391" lon="3.60287">
        <ele>156.35</ele>
        <time>2016-03-13T08:20:47Z</time>
      </trkpt>
      <trkpt lat="50.12383" lon="3.60271">
        <ele>155.87</ele>
        <time>2016-03-13T08:20:50Z</time>
      </trkpt>
      <trkpt lat="50.12375" lon="3.60252">
        <ele>155.87</ele>
        <time>2016-03-13T08:20:53Z</time>
      </trkpt>
      <trkpt lat="50.12386" lon="3.60195">
        <ele>153.47</ele>
        <time>2016-03-13T08:21:02Z</time>
      </trkpt>
      <trkpt lat="50.12398" lon="3.60182">
        <ele>152.99</ele>
        <time>2016-03-13T08:21:06Z</time>
      </trkpt>
      <trkpt lat="50.12386" lon="3.60152">
        <ele>152.03</ele>
        <time>2016-03-13T08:21:15Z</time>
      </trkpt>
      <trkpt lat="50.12359" lon="3.60095">
        <ele>150.1</ele>
        <time>2016-03-13T08:21:24Z</time>
      </trkpt>
      <trkpt lat="50.12338" lon="3.60048">
        <ele>150.1</ele>
        <time>2016-03-13T08:21:31Z</time>
      </trkpt>
      <trkpt lat="50.12332" lon="3.60035">
        <ele>152.03</ele>
        <time>2016-03-13T08:21:33Z</time>
      </trkpt>
      <trkpt lat="50.12306" lon="3.59975">
        <ele>153.95</ele>
        <time>2016-03-13T08:21:44Z</time>
      </trkpt>
      <trkpt lat="50.12291" lon="3.59949">
        <ele>154.43</ele>
        <time>2016-03-13T08:21:51Z</time>
      </trkpt>
      <trkpt lat="50.12256" lon="3.59878">
        <ele>154.91</ele>
        <time>2016-03-13T08:22:06Z</time>
      </trkpt>
      <trkpt lat="50.12233" lon="3.59834">
        <ele>155.39</ele>
        <time>2016-03-13T08:22:15Z</time>
      </trkpt>
      <trkpt lat="50.12206" lon="3.59778">
        <ele>154.91</ele>
        <time>2016-03-13T08:22:26Z</time>
      </trkpt>
      <trkpt lat="50.12179" lon="3.59722">
        <ele>154.91</ele>
        <time>2016-03-13T08:22:38Z</time>
      </trkpt>
      <trkpt lat="50.12155" lon="3.5968">
        <ele>154.91</ele>
        <time>2016-03-13T08:22:48Z</time>
      </trkpt>
      <trkpt lat="50.12135" lon="3.59636">
        <ele>154.91</ele>
        <time>2016-03-13T08:22:59Z</time>
      </trkpt>
      <trkpt lat="50.12112" lon="3.5959">
        <ele>154.91</ele>
        <time>2016-03-13T08:23:10Z</time>
      </trkpt>
      <trkpt lat="50.12081" lon="3.59524">
        <ele>153.95</ele>
        <time>2016-03-13T08:23:23Z</time>
      </trkpt>
      <trkpt lat="50.12048" lon="3.59475">
        <ele>152.51</ele>
        <time>2016-03-13T08:23:35Z</time>
      </trkpt>
      <trkpt lat="50.12008" lon="3.59447">
        <ele>150.1</ele>
        <time>2016-03-13T08:23:47Z</time>
      </trkpt>
      <trkpt lat="50.12004" lon="3.59445">
        <ele>150.1</ele>
        <time>2016-03-13T08:24:00Z</time>
      </trkpt>
      <trkpt lat="50.12003" lon="3.59444">
        <ele>150.1</ele>
        <time>2016-03-13T08:24:01Z</time>
      </trkpt>
      <trkpt lat="50.11999" lon="3.5945">
        <ele>149.62</ele>
        <time>2016-03-13T08:24:10Z</time>
      </trkpt>
      <trkpt lat="50.12001" lon="3.59458">
        <ele>149.62</ele>
        <time>2016-03-13T08:24:25Z</time>
      </trkpt>
      <trkpt lat="50.11999" lon="3.59458">
        <ele>149.62</ele>
        <time>2016-03-13T08:25:09Z</time>
      </trkpt>
      <trkpt lat="50.12001" lon="3.59457">
        <ele>149.62</ele>
        <time>2016-03-13T08:25:57Z</time>
      </trkpt>
      <trkpt lat="50.12" lon="3.59459">
        <ele>149.62</ele>
        <time>2016-03-13T08:26:45Z</time>
      </trkpt>
      <trkpt lat="50.11998" lon="3.59455">
        <ele>149.62</ele>
        <time>2016-03-13T08:27:28Z</time>
      </trkpt>
      <trkpt lat="50.11999" lon="3.59455">
        <ele>149.62</ele>
        <time>2016-03-13T08:28:06Z</time>
      </trkpt>
      <trkpt lat="50.11998" lon="3.59454">
        <ele>149.62</ele>
        <time>2016-03-13T08:28:33Z</time>
      </trkpt>
      <trkpt lat="50.12" lon="3.59463">
        <ele>149.62</ele>
        <time>2016-03-13T08:29:06Z</time>
      </trkpt>
      <trkpt lat="50.11995" lon="3.59462">
        <ele>149.62</ele>
        <time>2016-03-13T08:29:23Z</time>
      </trkpt>
      <trkpt lat="50.11995" lon="3.59458">
        <ele>149.62</ele>
        <time>2016-03-13T08:29:38Z</time>
      </trkpt>
      <trkpt lat="50.11991" lon="3.59468">
        <ele>149.62</ele>
        <time>2016-03-13T08:29:44Z</time>
      </trkpt>
      <trkpt lat="50.1199" lon="3.59494">
        <ele>149.62</ele>
        <time>2016-03-13T08:29:56Z</time>
      </trkpt>
      <trkpt lat="50.11992" lon="3.59508">
        <ele>149.62</ele>
        <time>2016-03-13T08:30:10Z</time>
      </trkpt>
      <trkpt lat="50.11992" lon="3.5951">
        <ele>149.62</ele>
        <time>2016-03-13T08:30:12Z</time>
      </trkpt>
      <trkpt lat="50.12005" lon="3.59549">
        <ele>149.62</ele>
        <time>2016-03-13T08:30:23Z</time>
      </trkpt>
      <trkpt lat="50.12012" lon="3.59604">
        <ele>151.06</ele>
        <time>2016-03-13T08:30:36Z</time>
      </trkpt>
      <trkpt lat="50.12032" lon="3.59651">
        <ele>151.06</ele>
        <time>2016-03-13T08:30:49Z</time>
      </trkpt>
      <trkpt lat="50.12053" lon="3.59692">
        <ele>152.03</ele>
        <time>2016-03-13T08:31:00Z</time>
      </trkpt>
      <trkpt lat="50.12068" lon="3.59725">
        <ele>152.03</ele>
        <time>2016-03-13T08:31:11Z</time>
      </trkpt>
      <trkpt lat="50.12087" lon="3.59767">
        <ele>152.03</ele>
        <time>2016-03-13T08:31:23Z</time>
      </trkpt>
      <trkpt lat="50.12106" lon="3.59805">
        <ele>152.03</ele>
        <time>2016-03-13T08:31:33Z</time>
      </trkpt>
      <trkpt lat="50.12124" lon="3.59854">
        <ele>153.47</ele>
        <time>2016-03-13T08:31:46Z</time>
      </trkpt>
      <trkpt lat="50.12133" lon="3.599">
        <ele>153.47</ele>
        <time>2016-03-13T08:31:57Z</time>
      </trkpt>
      <trkpt lat="50.1213" lon="3.59933">
        <ele>153.47</ele>
        <time>2016-03-13T08:32:08Z</time>
      </trkpt>
      <trkpt lat="50.12096" lon="3.59962">
        <ele>152.51</ele>
        <time>2016-03-13T08:32:19Z</time>
      </trkpt>
      <trkpt lat="50.12056" lon="3.59991">
        <ele>150.1</ele>
        <time>2016-03-13T08:32:30Z</time>
      </trkpt>
      <trkpt lat="50.12015" lon="3.60018">
        <ele>148.66</ele>
        <time>2016-03-13T08:32:41Z</time>
      </trkpt>
      <trkpt lat="50.11997" lon="3.60028">
        <ele>147.7</ele>
        <time>2016-03-13T08:32:45Z</time>
      </trkpt>
      <trkpt lat="50.11988" lon="3.60035">
        <ele>146.74</ele>
        <time>2016-03-13T08:32:47Z</time>
      </trkpt>
      <trkpt lat="50.11957" lon="3.60059">
        <ele>146.26</ele>
        <time>2016-03-13T08:32:57Z</time>
      </trkpt>
      <trkpt lat="50.11936" lon="3.60092">
        <ele>146.26</ele>
        <time>2016-03-13T08:33:07Z</time>
      </trkpt>
      <trkpt lat="50.11931" lon="3.60143">
        <ele>146.26</ele>
        <time>2016-03-13T08:33:18Z</time>
      </trkpt>
      <trkpt lat="50.1193" lon="3.60158">
        <ele>147.7</ele>
        <time>2016-03-13T08:33:22Z</time>
      </trkpt>
      <trkpt lat="50.11929" lon="3.60216">
        <ele>147.7</ele>
        <time>2016-03-13T08:33:34Z</time>
      </trkpt>
      <trkpt lat="50.11935" lon="3.6027">
        <ele>148.18</ele>
        <time>2016-03-13T08:33:45Z</time>
      </trkpt>
      <trkpt lat="50.11938" lon="3.60329">
        <ele>148.18</ele>
        <time>2016-03-13T08:33:56Z</time>
      </trkpt>
      <trkpt lat="50.1194" lon="3.60383">
        <ele>148.18</ele>
        <time>2016-03-13T08:34:06Z</time>
      </trkpt>
      <trkpt lat="50.11931" lon="3.6044">
        <ele>148.18</ele>
        <time>2016-03-13T08:34:18Z</time>
      </trkpt>
      <trkpt lat="50.11922" lon="3.60492">
        <ele>148.66</ele>
        <time>2016-03-13T08:34:28Z</time>
      </trkpt>
      <trkpt lat="50.11907" lon="3.60552">
        <ele>149.14</ele>
        <time>2016-03-13T08:34:40Z</time>
      </trkpt>
      <trkpt lat="50.11885" lon="3.60602">
        <ele>149.14</ele>
        <time>2016-03-13T08:34:51Z</time>
      </trkpt>
      <trkpt lat="50.11867" lon="3.60645">
        <ele>149.62</ele>
        <time>2016-03-13T08:35:01Z</time>
      </trkpt>
      <trkpt lat="50.1186" lon="3.60653">
        <ele>149.62</ele>
        <time>2016-03-13T08:35:04Z</time>
      </trkpt>
      <trkpt lat="50.11847" lon="3.60646">
        <ele>149.62</ele>
        <time>2016-03-13T08:35:09Z</time>
      </trkpt>
      <trkpt lat="50.11814" lon="3.60613">
        <ele>151.06</ele>
        <time>2016-03-13T08:35:23Z</time>
      </trkpt>
      <trkpt lat="50.11789" lon="3.60588">
        <ele>152.99</ele>
        <time>2016-03-13T08:35:37Z</time>
      </trkpt>
      <trkpt lat="50.11765" lon="3.60562">
        <ele>153.47</ele>
        <time>2016-03-13T08:35:45Z</time>
      </trkpt>
      <trkpt lat="50.11745" lon="3.60553">
        <ele>153.95</ele>
        <time>2016-03-13T08:35:51Z</time>
      </trkpt>
      <trkpt lat="50.11717" lon="3.6051">
        <ele>154.43</ele>
        <time>2016-03-13T08:36:03Z</time>
      </trkpt>
      <trkpt lat="50.11687" lon="3.60466">
        <ele>154.91</ele>
        <time>2016-03-13T08:36:14Z</time>
      </trkpt>
      <trkpt lat="50.11659" lon="3.60422">
        <ele>153.95</ele>
        <time>2016-03-13T08:36:23Z</time>
      </trkpt>
      <trkpt lat="50.11634" lon="3.60389">
        <ele>151.54</ele>
        <time>2016-03-13T08:36:29Z</time>
      </trkpt>
      <trkpt lat="50.11627" lon="3.60377">
        <ele>150.58</ele>
        <time>2016-03-13T08:36:31Z</time>
      </trkpt>
      <trkpt lat="50.11593" lon="3.60352">
        <ele>149.62</ele>
        <time>2016-03-13T08:36:40Z</time>
      </trkpt>
      <trkpt lat="50.11591" lon="3.60347">
        <ele>149.62</ele>
        <time>2016-03-13T08:36:41Z</time>
      </trkpt>
      <trkpt lat="50.11586" lon="3.60329">
        <ele>149.62</ele>
        <time>2016-03-13T08:36:44Z</time>
      </trkpt>
      <trkpt lat="50.11576" lon="3.60306">
        <ele>151.06</ele>
        <time>2016-03-13T08:36:49Z</time>
      </trkpt>
      <trkpt lat="50.11552" lon="3.6026">
        <ele>152.03</ele>
        <time>2016-03-13T08:37:01Z</time>
      </trkpt>
      <trkpt lat="50.11537" lon="3.60221">
        <ele>150.58</ele>
        <time>2016-03-13T08:37:08Z</time>
      </trkpt>
      <trkpt lat="50.11511" lon="3.6018">
        <ele>149.14</ele>
        <time>2016-03-13T08:37:19Z</time>
      </trkpt>
      <trkpt lat="50.11487" lon="3.60168">
        <ele>147.7</ele>
        <time>2016-03-13T08:37:26Z</time>
      </trkpt>
      <trkpt lat="50.11463" lon="3.60208">
        <ele>147.7</ele>
        <time>2016-03-13T08:37:38Z</time>
      </trkpt>
      <trkpt lat="50.11461" lon="3.60215">
        <ele>149.14</ele>
        <time>2016-03-13T08:37:40Z</time>
      </trkpt>
      <trkpt lat="50.11445" lon="3.60245">
        <ele>151.06</ele>
        <time>2016-03-13T08:37:51Z</time>
      </trkpt>
      <trkpt lat="50.11427" lon="3.60272">
        <ele>152.51</ele>
        <time>2016-03-13T08:38:01Z</time>
      </trkpt>
      <trkpt lat="50.11426" lon="3.60312">
        <ele>153.47</ele>
        <time>2016-03-13T08:38:13Z</time>
      </trkpt>
      <trkpt lat="50.11425" lon="3.60329">
        <ele>153.47</ele>
        <time>2016-03-13T08:38:19Z</time>
      </trkpt>
      <trkpt lat="50.11425" lon="3.60343">
        <ele>153.95</ele>
        <time>2016-03-13T08:38:26Z</time>
      </trkpt>
      <trkpt lat="50.11427" lon="3.60372">
        <ele>153.95</ele>
        <time>2016-03-13T08:38:37Z</time>
      </trkpt>
      <trkpt lat="50.1143" lon="3.60406">
        <ele>154.91</ele>
        <time>2016-03-13T08:38:48Z</time>
      </trkpt>
      <trkpt lat="50.11431" lon="3.60413">
        <ele>154.91</ele>
        <time>2016-03-13T08:38:50Z</time>
      </trkpt>
      <trkpt lat="50.11432" lon="3.60423">
        <ele>154.91</ele>
        <time>2016-03-13T08:38:53Z</time>
      </trkpt>
      <trkpt lat="50.11438" lon="3.60475">
        <ele>155.87</ele>
        <time>2016-03-13T08:39:07Z</time>
      </trkpt>
      <trkpt lat="50.11443" lon="3.60527">
        <ele>156.35</ele>
        <time>2016-03-13T08:39:21Z</time>
      </trkpt>
      <trkpt lat="50.11446" lon="3.60573">
        <ele>156.83</ele>
        <time>2016-03-13T08:39:33Z</time>
      </trkpt>
      <trkpt lat="50.11448" lon="3.60637">
        <ele>156.83</ele>
        <time>2016-03-13T08:39:48Z</time>
      </trkpt>
      <trkpt lat="50.11453" lon="3.60689">
        <ele>157.31</ele>
        <time>2016-03-13T08:40:01Z</time>
      </trkpt>
      <trkpt lat="50.11454" lon="3.60727">
        <ele>158.27</ele>
        <time>2016-03-13T08:40:12Z</time>
      </trkpt>
      <trkpt lat="50.11458" lon="3.60793">
        <ele>158.27</ele>
        <time>2016-03-13T08:40:26Z</time>
      </trkpt>
      <trkpt lat="50.11443" lon="3.60826">
        <ele>158.27</ele>
        <time>2016-03-13T08:40:36Z</time>
      </trkpt>
      <trkpt lat="50.11428" lon="3.60875">
        <ele>158.27</ele>
        <time>2016-03-13T08:40:49Z</time>
      </trkpt>
      <trkpt lat="50.11434" lon="3.60946">
        <ele>156.83</ele>
        <time>2016-03-13T08:41:02Z</time>
      </trkpt>
      <trkpt lat="50.11441" lon="3.61048">
        <ele>154.91</ele>
        <time>2016-03-13T08:41:18Z</time>
      </trkpt>
      <trkpt lat="50.11451" lon="3.61174">
        <ele>152.51</ele>
        <time>2016-03-13T08:41:34Z</time>
      </trkpt>
      <trkpt lat="50.11458" lon="3.61273">
        <ele>151.54</ele>
        <time>2016-03-13T08:41:47Z</time>
      </trkpt>
      <trkpt lat="50.11468" lon="3.61399">
        <ele>150.58</ele>
        <time>2016-03-13T08:42:04Z</time>
      </trkpt>
      <trkpt lat="50.1148" lon="3.61552">
        <ele>150.1</ele>
        <time>2016-03-13T08:42:24Z</time>
      </trkpt>
      <trkpt lat="50.11489" lon="3.61676">
        <ele>149.62</ele>
        <time>2016-03-13T08:42:41Z</time>
      </trkpt>
      <trkpt lat="50.11493" lon="3.61733">
        <ele>150.58</ele>
        <time>2016-03-13T08:42:49Z</time>
      </trkpt>
      <trkpt lat="50.11494" lon="3.6174">
        <ele>150.58</ele>
        <time>2016-03-13T08:42:50Z</time>
      </trkpt>
      <trkpt lat="50.11495" lon="3.61754">
        <ele>150.58</ele>
        <time>2016-03-13T08:42:52Z</time>
      </trkpt>
      <trkpt lat="50.11496" lon="3.61761">
        <ele>150.58</ele>
        <time>2016-03-13T08:42:53Z</time>
      </trkpt>
      <trkpt lat="50.11496" lon="3.61767">
        <ele>150.58</ele>
        <time>2016-03-13T08:42:54Z</time>
      </trkpt>
      <trkpt lat="50.115" lon="3.61814">
        <ele>150.58</ele>
        <time>2016-03-13T08:43:01Z</time>
      </trkpt>
      <trkpt lat="50.11502" lon="3.6184">
        <ele>150.58</ele>
        <time>2016-03-13T08:43:05Z</time>
      </trkpt>
      <trkpt lat="50.11511" lon="3.61954">
        <ele>152.99</ele>
        <time>2016-03-13T08:43:23Z</time>
      </trkpt>
      <trkpt lat="50.11518" lon="3.62024">
        <ele>153.95</ele>
        <time>2016-03-13T08:43:35Z</time>
      </trkpt>
      <trkpt lat="50.11524" lon="3.62116">
        <ele>155.39</ele>
        <time>2016-03-13T08:43:50Z</time>
      </trkpt>
      <trkpt lat="50.11524" lon="3.62122">
        <ele>155.39</ele>
        <time>2016-03-13T08:43:51Z</time>
      </trkpt>
      <trkpt lat="50.11528" lon="3.62176">
        <ele>153.95</ele>
        <time>2016-03-13T08:43:59Z</time>
      </trkpt>
      <trkpt lat="50.11537" lon="3.623">
        <ele>150.1</ele>
        <time>2016-03-13T08:44:14Z</time>
      </trkpt>
      <trkpt lat="50.11541" lon="3.6236">
        <ele>148.66</ele>
        <time>2016-03-13T08:44:21Z</time>
      </trkpt>
      <trkpt lat="50.11542" lon="3.62366">
        <ele>147.7</ele>
        <time>2016-03-13T08:44:22Z</time>
      </trkpt>
      <trkpt lat="50.11545" lon="3.6237">
        <ele>147.7</ele>
        <time>2016-03-13T08:44:23Z</time>
      </trkpt>
      <trkpt lat="50.11548" lon="3.62373">
        <ele>147.7</ele>
        <time>2016-03-13T08:44:24Z</time>
      </trkpt>
      <trkpt lat="50.11561" lon="3.62372">
        <ele>147.22</ele>
        <time>2016-03-13T08:44:28Z</time>
      </trkpt>
      <trkpt lat="50.11605" lon="3.62346">
        <ele>147.22</ele>
        <time>2016-03-13T08:44:42Z</time>
      </trkpt>
      <trkpt lat="50.1164" lon="3.62311">
        <ele>147.22</ele>
        <time>2016-03-13T08:44:54Z</time>
      </trkpt>
      <trkpt lat="50.11668" lon="3.62256">
        <ele>147.22</ele>
        <time>2016-03-13T08:45:05Z</time>
      </trkpt>
      <trkpt lat="50.11699" lon="3.62214">
        <ele>147.22</ele>
        <time>2016-03-13T08:45:15Z</time>
      </trkpt>
      <trkpt lat="50.11728" lon="3.62187">
        <ele>149.14</ele>
        <time>2016-03-13T08:45:25Z</time>
      </trkpt>
      <trkpt lat="50.11754" lon="3.62167">
        <ele>150.1</ele>
        <time>2016-03-13T08:45:34Z</time>
      </trkpt>
      <trkpt lat="50.11783" lon="3.62182">
        <ele>151.54</ele>
        <time>2016-03-13T08:45:46Z</time>
      </trkpt>
      <trkpt lat="50.11792" lon="3.62189">
        <ele>151.54</ele>
        <time>2016-03-13T08:45:50Z</time>
      </trkpt>
      <trkpt lat="50.1182" lon="3.62215">
        <ele>152.51</ele>
        <time>2016-03-13T08:46:04Z</time>
      </trkpt>
      <trkpt lat="50.11842" lon="3.62237">
        <ele>153.47</ele>
        <time>2016-03-13T08:46:16Z</time>
      </trkpt>
      <trkpt lat="50.11867" lon="3.62267">
        <ele>154.43</ele>
        <time>2016-03-13T08:46:30Z</time>
      </trkpt>
      <trkpt lat="50.11895" lon="3.62299">
        <ele>153.95</ele>
        <time>2016-03-13T08:46:44Z</time>
      </trkpt>
      <trkpt lat="50.11905" lon="3.6231">
        <ele>154.43</ele>
        <time>2016-03-13T08:46:50Z</time>
      </trkpt>
      <trkpt lat="50.11892" lon="3.62348">
        <ele>152.99</ele>
        <time>2016-03-13T08:47:02Z</time>
      </trkpt>
      <trkpt lat="50.11864" lon="3.62412">
        <ele>149.62</ele>
        <time>2016-03-13T08:47:12Z</time>
      </trkpt>
      <trkpt lat="50.11833" lon="3.62478">
        <ele>150.58</ele>
        <time>2016-03-13T08:47:24Z</time>
      </trkpt>
      <trkpt lat="50.11831" lon="3.62481">
        <ele>150.58</ele>
        <time>2016-03-13T08:47:25Z</time>
      </trkpt>
      <trkpt lat="50.11817" lon="3.62512">
        <ele>152.51</ele>
        <time>2016-03-13T08:47:36Z</time>
      </trkpt>
      <trkpt lat="50.11801" lon="3.62551">
        <ele>154.43</ele>
        <time>2016-03-13T08:47:51Z</time>
      </trkpt>
      <trkpt lat="50.11794" lon="3.6258">
        <ele>156.35</ele>
        <time>2016-03-13T08:47:59Z</time>
      </trkpt>
      <trkpt lat="50.11795" lon="3.62585">
        <ele>156.35</ele>
        <time>2016-03-13T08:48:00Z</time>
      </trkpt>
      <trkpt lat="50.11797" lon="3.62589">
        <ele>156.35</ele>
        <time>2016-03-13T08:48:01Z</time>
      </trkpt>
      <trkpt lat="50.11837" lon="3.62674">
        <ele>156.83</ele>
        <time>2016-03-13T08:48:18Z</time>
      </trkpt>
      <trkpt lat="50.11884" lon="3.62773">
        <ele>157.31</ele>
        <time>2016-03-13T08:48:36Z</time>
      </trkpt>
      <trkpt lat="50.11932" lon="3.62866">
        <ele>157.79</ele>
        <time>2016-03-13T08:48:53Z</time>
      </trkpt>
      <trkpt lat="50.11947" lon="3.62896">
        <ele>158.27</ele>
        <time>2016-03-13T08:48:58Z</time>
      </trkpt>
      <trkpt lat="50.11995" lon="3.62986">
        <ele>159.72</ele>
        <time>2016-03-13T08:49:15Z</time>
      </trkpt>
      <trkpt lat="50.12042" lon="3.63081">
        <ele>161.64</ele>
        <time>2016-03-13T08:49:33Z</time>
      </trkpt>
      <trkpt lat="50.1209" lon="3.63177">
        <ele>162.12</ele>
        <time>2016-03-13T08:49:51Z</time>
      </trkpt>
      <trkpt lat="50.12117" lon="3.63231">
        <ele>162.12</ele>
        <time>2016-03-13T08:50:01Z</time>
      </trkpt>
      <trkpt lat="50.12174" lon="3.63342">
        <ele>159.72</ele>
        <time>2016-03-13T08:50:21Z</time>
      </trkpt>
      <trkpt lat="50.12178" lon="3.63348">
        <ele>159.72</ele>
        <time>2016-03-13T08:50:22Z</time>
      </trkpt>
      <trkpt lat="50.12222" lon="3.63417">
        <ele>156.83</ele>
        <time>2016-03-13T08:50:34Z</time>
      </trkpt>
      <trkpt lat="50.12244" lon="3.63449">
        <ele>155.87</ele>
        <time>2016-03-13T08:50:41Z</time>
      </trkpt>
      <trkpt lat="50.12243" lon="3.63454">
        <ele>155.39</ele>
        <time>2016-03-13T08:50:42Z</time>
      </trkpt>
      <trkpt lat="50.12238" lon="3.63465">
        <ele>155.39</ele>
        <time>2016-03-13T08:50:44Z</time>
      </trkpt>
      <trkpt lat="50.12228" lon="3.63487">
        <ele>153.47</ele>
        <time>2016-03-13T08:50:47Z</time>
      </trkpt>
      <trkpt lat="50.12218" lon="3.63509">
        <ele>153.47</ele>
        <time>2016-03-13T08:50:50Z</time>
      </trkpt>
      <trkpt lat="50.12198" lon="3.63543">
        <ele>152.03</ele>
        <time>2016-03-13T08:50:56Z</time>
      </trkpt>
      <trkpt lat="50.12191" lon="3.6356">
        <ele>152.03</ele>
        <time>2016-03-13T08:50:59Z</time>
      </trkpt>
      <trkpt lat="50.12172" lon="3.63619">
        <ele>150.58</ele>
        <time>2016-03-13T08:51:09Z</time>
      </trkpt>
      <trkpt lat="50.12161" lon="3.63645">
        <ele>150.58</ele>
        <time>2016-03-13T08:51:14Z</time>
      </trkpt>
      <trkpt lat="50.12152" lon="3.63668">
        <ele>150.58</ele>
        <time>2016-03-13T08:51:19Z</time>
      </trkpt>
      <trkpt lat="50.12139" lon="3.63731">
        <ele>150.58</ele>
        <time>2016-03-13T08:51:31Z</time>
      </trkpt>
      <trkpt lat="50.12122" lon="3.63784">
        <ele>150.1</ele>
        <time>2016-03-13T08:51:42Z</time>
      </trkpt>
      <trkpt lat="50.12112" lon="3.63818">
        <ele>151.54</ele>
        <time>2016-03-13T08:51:50Z</time>
      </trkpt>
      <trkpt lat="50.12083" lon="3.63868">
        <ele>150.1</ele>
        <time>2016-03-13T08:52:02Z</time>
      </trkpt>
      <trkpt lat="50.12042" lon="3.63903">
        <ele>149.62</ele>
        <time>2016-03-13T08:52:14Z</time>
      </trkpt>
      <trkpt lat="50.12037" lon="3.63918">
        <ele>148.66</ele>
        <time>2016-03-13T08:52:17Z</time>
      </trkpt>
      <trkpt lat="50.12016" lon="3.63938">
        <ele>147.7</ele>
        <time>2016-03-13T08:52:26Z</time>
      </trkpt>
      <trkpt lat="50.12001" lon="3.63948">
        <ele>147.22</ele>
        <time>2016-03-13T08:52:32Z</time>
      </trkpt>
      <trkpt lat="50.11957" lon="3.63975">
        <ele>146.26</ele>
        <time>2016-03-13T08:52:44Z</time>
      </trkpt>
      <trkpt lat="50.11953" lon="3.63977">
        <ele>145.78</ele>
        <time>2016-03-13T08:52:45Z</time>
      </trkpt>
      <trkpt lat="50.11913" lon="3.64009">
        <ele>144.82</ele>
        <time>2016-03-13T08:52:57Z</time>
      </trkpt>
      <trkpt lat="50.11889" lon="3.64016">
        <ele>146.26</ele>
        <time>2016-03-13T08:53:06Z</time>
      </trkpt>
      <trkpt lat="50.11866" lon="3.6399">
        <ele>148.18</ele>
        <time>2016-03-13T08:53:20Z</time>
      </trkpt>
      <trkpt lat="50.11851" lon="3.6396">
        <ele>149.14</ele>
        <time>2016-03-13T08:53:31Z</time>
      </trkpt>
      <trkpt lat="50.11829" lon="3.63916">
        <ele>149.14</ele>
        <time>2016-03-13T08:53:44Z</time>
      </trkpt>
      <trkpt lat="50.11822" lon="3.63905">
        <ele>149.14</ele>
        <time>2016-03-13T08:53:46Z</time>
      </trkpt>
      <trkpt lat="50.11814" lon="3.63889">
        <ele>149.14</ele>
        <time>2016-03-13T08:53:49Z</time>
      </trkpt>
      <trkpt lat="50.11785" lon="3.63831">
        <ele>149.14</ele>
        <time>2016-03-13T08:54:01Z</time>
      </trkpt>
      <trkpt lat="50.11757" lon="3.63819">
        <ele>147.7</ele>
        <time>2016-03-13T08:54:10Z</time>
      </trkpt>
      <trkpt lat="50.11736" lon="3.63843">
        <ele>147.22</ele>
        <time>2016-03-13T08:54:22Z</time>
      </trkpt>
      <trkpt lat="50.11724" lon="3.63854">
        <ele>146.74</ele>
        <time>2016-03-13T08:54:32Z</time>
      </trkpt>
      <trkpt lat="50.11705" lon="3.63876">
        <ele>145.78</ele>
        <time>2016-03-13T08:54:42Z</time>
      </trkpt>
      <trkpt lat="50.11689" lon="3.6389">
        <ele>145.3</ele>
        <time>2016-03-13T08:54:48Z</time>
      </trkpt>
      <trkpt lat="50.1168" lon="3.63905">
        <ele>145.3</ele>
        <time>2016-03-13T08:54:54Z</time>
      </trkpt>
      <trkpt lat="50.11667" lon="3.63919">
        <ele>144.82</ele>
        <time>2016-03-13T08:55:00Z</time>
      </trkpt>
      <trkpt lat="50.11667" lon="3.63921">
        <ele>144.82</ele>
        <time>2016-03-13T08:55:01Z</time>
      </trkpt>
      <trkpt lat="50.11667" lon="3.63924">
        <ele>144.82</ele>
        <time>2016-03-13T08:55:02Z</time>
      </trkpt>
      <trkpt lat="50.11666" lon="3.63927">
        <ele>144.82</ele>
        <time>2016-03-13T08:55:03Z</time>
      </trkpt>
      <trkpt lat="50.11665" lon="3.6393">
        <ele>144.82</ele>
        <time>2016-03-13T08:55:04Z</time>
      </trkpt>
      <trkpt lat="50.11664" lon="3.63933">
        <ele>145.3</ele>
        <time>2016-03-13T08:55:05Z</time>
      </trkpt>
      <trkpt lat="50.11664" lon="3.63936">
        <ele>145.3</ele>
        <time>2016-03-13T08:55:06Z</time>
      </trkpt>
      <trkpt lat="50.11665" lon="3.6394">
        <ele>145.3</ele>
        <time>2016-03-13T08:55:07Z</time>
      </trkpt>
      <trkpt lat="50.11665" lon="3.63944">
        <ele>145.3</ele>
        <time>2016-03-13T08:55:08Z</time>
      </trkpt>
      <trkpt lat="50.11666" lon="3.63947">
        <ele>145.3</ele>
        <time>2016-03-13T08:55:09Z</time>
      </trkpt>
      <trkpt lat="50.11666" lon="3.6395">
        <ele>145.3</ele>
        <time>2016-03-13T08:55:10Z</time>
      </trkpt>
      <trkpt lat="50.11666" lon="3.63953">
        <ele>145.3</ele>
        <time>2016-03-13T08:55:11Z</time>
      </trkpt>
      <trkpt lat="50.11666" lon="3.63957">
        <ele>145.3</ele>
        <time>2016-03-13T08:55:12Z</time>
      </trkpt>
      <trkpt lat="50.11666" lon="3.63961">
        <ele>145.3</ele>
        <time>2016-03-13T08:55:13Z</time>
      </trkpt>
      <trkpt lat="50.11671" lon="3.63985">
        <ele>145.3</ele>
        <time>2016-03-13T08:55:19Z</time>
      </trkpt>
      <trkpt lat="50.11671" lon="3.63988">
        <ele>145.3</ele>
        <time>2016-03-13T08:55:20Z</time>
      </trkpt>
      <trkpt lat="50.11671" lon="3.63991">
        <ele>145.3</ele>
        <time>2016-03-13T08:55:21Z</time>
      </trkpt>
      <trkpt lat="50.11671" lon="3.63995">
        <ele>145.3</ele>
        <time>2016-03-13T08:55:22Z</time>
      </trkpt>
      <trkpt lat="50.11671" lon="3.63997">
        <ele>145.3</ele>
        <time>2016-03-13T08:55:23Z</time>
      </trkpt>
      <trkpt lat="50.11671" lon="3.64">
        <ele>145.3</ele>
        <time>2016-03-13T08:55:24Z</time>
      </trkpt>
      <trkpt lat="50.11672" lon="3.64003">
        <ele>145.3</ele>
        <time>2016-03-13T08:55:25Z</time>
      </trkpt>
      <trkpt lat="50.11672" lon="3.64006">
        <ele>145.3</ele>
        <time>2016-03-13T08:55:26Z</time>
      </trkpt>
      <trkpt lat="50.11676" lon="3.64058">
        <ele>146.26</ele>
        <time>2016-03-13T08:55:36Z</time>
      </trkpt>
      <trkpt lat="50.11681" lon="3.64145">
        <ele>147.22</ele>
        <time>2016-03-13T08:55:51Z</time>
      </trkpt>
      <trkpt lat="50.1169" lon="3.64239">
        <ele>147.7</ele>
        <time>2016-03-13T08:56:07Z</time>
      </trkpt>
      <trkpt lat="50.11691" lon="3.64271">
        <ele>147.7</ele>
        <time>2016-03-13T08:56:12Z</time>
      </trkpt>
      <trkpt lat="50.11691" lon="3.64278">
        <ele>147.7</ele>
        <time>2016-03-13T08:56:13Z</time>
      </trkpt>
      <trkpt lat="50.11692" lon="3.64286">
        <ele>146.74</ele>
        <time>2016-03-13T08:56:14Z</time>
      </trkpt>
      <trkpt lat="50.11692" lon="3.64293">
        <ele>146.74</ele>
        <time>2016-03-13T08:56:15Z</time>
      </trkpt>
      <trkpt lat="50.11696" lon="3.64347">
        <ele>146.74</ele>
        <time>2016-03-13T08:56:23Z</time>
      </trkpt>
      <trkpt lat="50.11698" lon="3.64361">
        <ele>146.74</ele>
        <time>2016-03-13T08:56:25Z</time>
      </trkpt>
      <trkpt lat="50.11703" lon="3.64441">
        <ele>146.74</ele>
        <time>2016-03-13T08:56:36Z</time>
      </trkpt>
      <trkpt lat="50.11712" lon="3.64556">
        <ele>146.74</ele>
        <time>2016-03-13T08:56:52Z</time>
      </trkpt>
      <trkpt lat="50.11721" lon="3.64687">
        <ele>144.82</ele>
        <time>2016-03-13T08:57:08Z</time>
      </trkpt>
      <trkpt lat="50.11728" lon="3.64776">
        <ele>141.45</ele>
        <time>2016-03-13T08:57:18Z</time>
      </trkpt>
      <trkpt lat="50.11734" lon="3.64835">
        <ele>140.01</ele>
        <time>2016-03-13T08:57:25Z</time>
      </trkpt>
      <trkpt lat="50.11737" lon="3.64849">
        <ele>139.53</ele>
        <time>2016-03-13T08:57:27Z</time>
      </trkpt>
      <trkpt lat="50.11738" lon="3.64855">
        <ele>139.53</ele>
        <time>2016-03-13T08:57:28Z</time>
      </trkpt>
      <trkpt lat="50.11743" lon="3.64867">
        <ele>139.53</ele>
        <time>2016-03-13T08:57:30Z</time>
      </trkpt>
      <trkpt lat="50.11747" lon="3.64873">
        <ele>139.53</ele>
        <time>2016-03-13T08:57:31Z</time>
      </trkpt>
      <trkpt lat="50.11755" lon="3.64885">
        <ele>139.05</ele>
        <time>2016-03-13T08:57:33Z</time>
      </trkpt>
      <trkpt lat="50.11804" lon="3.64934">
        <ele>140.49</ele>
        <time>2016-03-13T08:57:44Z</time>
      </trkpt>
      <trkpt lat="50.11862" lon="3.64988">
        <ele>140.49</ele>
        <time>2016-03-13T08:57:58Z</time>
      </trkpt>
      <trkpt lat="50.11905" lon="3.65028">
        <ele>141.45</ele>
        <time>2016-03-13T08:58:10Z</time>
      </trkpt>
      <trkpt lat="50.11963" lon="3.65078">
        <ele>141.45</ele>
        <time>2016-03-13T08:58:26Z</time>
      </trkpt>
      <trkpt lat="50.11992" lon="3.65108">
        <ele>141.45</ele>
        <time>2016-03-13T08:58:34Z</time>
      </trkpt>
      <trkpt lat="50.11999" lon="3.65117">
        <ele>141.45</ele>
        <time>2016-03-13T08:58:36Z</time>
      </trkpt>
      <trkpt lat="50.12001" lon="3.65122">
        <ele>141.45</ele>
        <time>2016-03-13T08:58:37Z</time>
      </trkpt>
      <trkpt lat="50.12004" lon="3.65127">
        <ele>141.45</ele>
        <time>2016-03-13T08:58:38Z</time>
      </trkpt>
      <trkpt lat="50.12018" lon="3.65144">
        <ele>141.93</ele>
        <time>2016-03-13T08:58:43Z</time>
      </trkpt>
      <trkpt lat="50.12022" lon="3.65141">
        <ele>141.93</ele>
        <time>2016-03-13T08:58:44Z</time>
      </trkpt>
      <trkpt lat="50.12063" lon="3.65084">
        <ele>143.37</ele>
        <time>2016-03-13T08:59:00Z</time>
      </trkpt>
      <trkpt lat="50.12104" lon="3.65031">
        <ele>143.85</ele>
        <time>2016-03-13T08:59:15Z</time>
      </trkpt>
      <trkpt lat="50.12124" lon="3.65007">
        <ele>144.34</ele>
        <time>2016-03-13T08:59:19Z</time>
      </trkpt>
      <trkpt lat="50.12129" lon="3.65001">
        <ele>144.82</ele>
        <time>2016-03-13T08:59:20Z</time>
      </trkpt>
      <trkpt lat="50.12133" lon="3.64996">
        <ele>144.82</ele>
        <time>2016-03-13T08:59:21Z</time>
      </trkpt>
      <trkpt lat="50.12145" lon="3.64985">
        <ele>145.78</ele>
        <time>2016-03-13T08:59:24Z</time>
      </trkpt>
      <trkpt lat="50.12167" lon="3.64967">
        <ele>146.26</ele>
        <time>2016-03-13T08:59:31Z</time>
      </trkpt>
      <trkpt lat="50.12171" lon="3.64964">
        <ele>146.74</ele>
        <time>2016-03-13T08:59:32Z</time>
      </trkpt>
      <trkpt lat="50.12207" lon="3.64933">
        <ele>149.14</ele>
        <time>2016-03-13T08:59:47Z</time>
      </trkpt>
      <trkpt lat="50.12241" lon="3.64906">
        <ele>151.06</ele>
        <time>2016-03-13T08:59:59Z</time>
      </trkpt>
      <trkpt lat="50.12286" lon="3.64869">
        <ele>152.99</ele>
        <time>2016-03-13T09:00:17Z</time>
      </trkpt>
      <trkpt lat="50.12322" lon="3.64839">
        <ele>153.95</ele>
        <time>2016-03-13T09:00:32Z</time>
      </trkpt>
      <trkpt lat="50.12365" lon="3.64804">
        <ele>155.87</ele>
        <time>2016-03-13T09:00:48Z</time>
      </trkpt>
      <trkpt lat="50.12402" lon="3.64771">
        <ele>156.35</ele>
        <time>2016-03-13T09:01:02Z</time>
      </trkpt>
      <trkpt lat="50.12438" lon="3.64741">
        <ele>158.27</ele>
        <time>2016-03-13T09:01:16Z</time>
      </trkpt>
      <trkpt lat="50.12477" lon="3.64707">
        <ele>159.72</ele>
        <time>2016-03-13T09:01:31Z</time>
      </trkpt>
      <trkpt lat="50.12518" lon="3.64672">
        <ele>160.68</ele>
        <time>2016-03-13T09:01:46Z</time>
      </trkpt>
      <trkpt lat="50.12563" lon="3.64636">
        <ele>161.64</ele>
        <time>2016-03-13T09:02:01Z</time>
      </trkpt>
      <trkpt lat="50.12616" lon="3.64592">
        <ele>162.12</ele>
        <time>2016-03-13T09:02:17Z</time>
      </trkpt>
      <trkpt lat="50.12631" lon="3.64579">
        <ele>162.12</ele>
        <time>2016-03-13T09:02:21Z</time>
      </trkpt>
      <trkpt lat="50.12635" lon="3.64576">
        <ele>162.12</ele>
        <time>2016-03-13T09:02:22Z</time>
      </trkpt>
      <trkpt lat="50.12639" lon="3.64573">
        <ele>162.12</ele>
        <time>2016-03-13T09:02:23Z</time>
      </trkpt>
      <trkpt lat="50.12683" lon="3.64537">
        <ele>162.12</ele>
        <time>2016-03-13T09:02:36Z</time>
      </trkpt>
      <trkpt lat="50.12723" lon="3.64507">
        <ele>162.12</ele>
        <time>2016-03-13T09:02:49Z</time>
      </trkpt>
      <trkpt lat="50.12726" lon="3.64507">
        <ele>162.12</ele>
        <time>2016-03-13T09:02:50Z</time>
      </trkpt>
      <trkpt lat="50.12729" lon="3.64508">
        <ele>162.6</ele>
        <time>2016-03-13T09:02:51Z</time>
      </trkpt>
      <trkpt lat="50.12731" lon="3.64511">
        <ele>162.6</ele>
        <time>2016-03-13T09:02:52Z</time>
      </trkpt>
      <trkpt lat="50.12733" lon="3.64515">
        <ele>162.6</ele>
        <time>2016-03-13T09:02:53Z</time>
      </trkpt>
      <trkpt lat="50.12735" lon="3.64519">
        <ele>162.6</ele>
        <time>2016-03-13T09:02:54Z</time>
      </trkpt>
      <trkpt lat="50.12759" lon="3.64578">
        <ele>160.68</ele>
        <time>2016-03-13T09:03:06Z</time>
      </trkpt>
      <trkpt lat="50.12796" lon="3.64676">
        <ele>160.2</ele>
        <time>2016-03-13T09:03:23Z</time>
      </trkpt>
      <trkpt lat="50.12805" lon="3.64698">
        <ele>159.72</ele>
        <time>2016-03-13T09:03:27Z</time>
      </trkpt>
      <trkpt lat="50.12807" lon="3.64703">
        <ele>159.72</ele>
        <time>2016-03-13T09:03:28Z</time>
      </trkpt>
      <trkpt lat="50.12813" lon="3.64722">
        <ele>159.72</ele>
        <time>2016-03-13T09:03:31Z</time>
      </trkpt>
      <trkpt lat="50.12833" lon="3.64773">
        <ele>158.75</ele>
        <time>2016-03-13T09:03:39Z</time>
      </trkpt>
      <trkpt lat="50.12836" lon="3.64779">
        <ele>158.75</ele>
        <time>2016-03-13T09:03:40Z</time>
      </trkpt>
      <trkpt lat="50.12846" lon="3.64805">
        <ele>158.27</ele>
        <time>2016-03-13T09:03:44Z</time>
      </trkpt>
      <trkpt lat="50.12877" lon="3.64884">
        <ele>158.27</ele>
        <time>2016-03-13T09:03:59Z</time>
      </trkpt>
      <trkpt lat="50.12887" lon="3.64911">
        <ele>159.72</ele>
        <time>2016-03-13T09:04:05Z</time>
      </trkpt>
      <trkpt lat="50.12898" lon="3.6494">
        <ele>161.64</ele>
        <time>2016-03-13T09:04:11Z</time>
      </trkpt>
      <trkpt lat="50.12915" lon="3.64978">
        <ele>162.6</ele>
        <time>2016-03-13T09:04:19Z</time>
      </trkpt>
      <trkpt lat="50.12917" lon="3.6498">
        <ele>162.6</ele>
        <time>2016-03-13T09:04:20Z</time>
      </trkpt>
      <trkpt lat="50.1292" lon="3.64979">
        <ele>162.6</ele>
        <time>2016-03-13T09:04:21Z</time>
      </trkpt>
      <trkpt lat="50.12957" lon="3.64944">
        <ele>163.08</ele>
        <time>2016-03-13T09:04:35Z</time>
      </trkpt>
      <trkpt lat="50.13" lon="3.64904">
        <ele>164.52</ele>
        <time>2016-03-13T09:04:50Z</time>
      </trkpt>
      <trkpt lat="50.1305" lon="3.64856">
        <ele>165.96</ele>
        <time>2016-03-13T09:05:09Z</time>
      </trkpt>
      <trkpt lat="50.13105" lon="3.64805">
        <ele>165.96</ele>
        <time>2016-03-13T09:05:27Z</time>
      </trkpt>
      <trkpt lat="50.13132" lon="3.6478">
        <ele>165.96</ele>
        <time>2016-03-13T09:05:34Z</time>
      </trkpt>
      <trkpt lat="50.13136" lon="3.64776">
        <ele>165</ele>
        <time>2016-03-13T09:05:35Z</time>
      </trkpt>
      <trkpt lat="50.13139" lon="3.64772">
        <ele>165</ele>
        <time>2016-03-13T09:05:36Z</time>
      </trkpt>
      <trkpt lat="50.13159" lon="3.64754">
        <ele>164.52</ele>
        <time>2016-03-13T09:05:42Z</time>
      </trkpt>
      <trkpt lat="50.13163" lon="3.64756">
        <ele>164.52</ele>
        <time>2016-03-13T09:05:43Z</time>
      </trkpt>
      <trkpt lat="50.13164" lon="3.6476">
        <ele>164.52</ele>
        <time>2016-03-13T09:05:44Z</time>
      </trkpt>
      <trkpt lat="50.13165" lon="3.64764">
        <ele>164.52</ele>
        <time>2016-03-13T09:05:45Z</time>
      </trkpt>
      <trkpt lat="50.13165" lon="3.64769">
        <ele>164.52</ele>
        <time>2016-03-13T09:05:46Z</time>
      </trkpt>
      <trkpt lat="50.13165" lon="3.64775">
        <ele>165</ele>
        <time>2016-03-13T09:05:47Z</time>
      </trkpt>
      <trkpt lat="50.13166" lon="3.64806">
        <ele>165.96</ele>
        <time>2016-03-13T09:05:52Z</time>
      </trkpt>
      <trkpt lat="50.13166" lon="3.64905">
        <ele>165.96</ele>
        <time>2016-03-13T09:06:10Z</time>
      </trkpt>
      <trkpt lat="50.13167" lon="3.64978">
        <ele>167.41</ele>
        <time>2016-03-13T09:06:25Z</time>
      </trkpt>
      <trkpt lat="50.13168" lon="3.65048">
        <ele>166.93</ele>
        <time>2016-03-13T09:06:39Z</time>
      </trkpt>
      <trkpt lat="50.13168" lon="3.65121">
        <ele>165.96</ele>
        <time>2016-03-13T09:06:52Z</time>
      </trkpt>
      <trkpt lat="50.13168" lon="3.65213">
        <ele>164.52</ele>
        <time>2016-03-13T09:07:07Z</time>
      </trkpt>
      <trkpt lat="50.13169" lon="3.65304">
        <ele>160.68</ele>
        <time>2016-03-13T09:07:22Z</time>
      </trkpt>
      <trkpt lat="50.13169" lon="3.65373">
        <ele>159.24</ele>
        <time>2016-03-13T09:07:35Z</time>
      </trkpt>
      <trkpt lat="50.13168" lon="3.65458">
        <ele>158.27</ele>
        <time>2016-03-13T09:07:49Z</time>
      </trkpt>
      <trkpt lat="50.13167" lon="3.65487">
        <ele>160.2</ele>
        <time>2016-03-13T09:07:55Z</time>
      </trkpt>
      <trkpt lat="50.13169" lon="3.65497">
        <ele>160.2</ele>
        <time>2016-03-13T09:07:58Z</time>
      </trkpt>
      <trkpt lat="50.1317" lon="3.65499">
        <ele>160.2</ele>
        <time>2016-03-13T09:07:59Z</time>
      </trkpt>
      <trkpt lat="50.13172" lon="3.655">
        <ele>160.2</ele>
        <time>2016-03-13T09:08:00Z</time>
      </trkpt>
      <trkpt lat="50.13174" lon="3.65502">
        <ele>160.2</ele>
        <time>2016-03-13T09:08:01Z</time>
      </trkpt>
      <trkpt lat="50.13176" lon="3.65504">
        <ele>160.2</ele>
        <time>2016-03-13T09:08:02Z</time>
      </trkpt>
      <trkpt lat="50.13179" lon="3.65507">
        <ele>160.2</ele>
        <time>2016-03-13T09:08:03Z</time>
      </trkpt>
      <trkpt lat="50.13181" lon="3.6551">
        <ele>160.2</ele>
        <time>2016-03-13T09:08:04Z</time>
      </trkpt>
      <trkpt lat="50.13183" lon="3.65513">
        <ele>160.2</ele>
        <time>2016-03-13T09:08:05Z</time>
      </trkpt>
      <trkpt lat="50.13185" lon="3.65516">
        <ele>160.2</ele>
        <time>2016-03-13T09:08:06Z</time>
      </trkpt>
      <trkpt lat="50.13215" lon="3.65556">
        <ele>160.2</ele>
        <time>2016-03-13T09:08:20Z</time>
      </trkpt>
      <trkpt lat="50.13232" lon="3.65581">
        <ele>160.2</ele>
        <time>2016-03-13T09:08:32Z</time>
      </trkpt>
      <trkpt lat="50.13262" lon="3.65618">
        <ele>162.12</ele>
        <time>2016-03-13T09:08:47Z</time>
      </trkpt>
      <trkpt lat="50.13287" lon="3.65653">
        <ele>164.04</ele>
        <time>2016-03-13T09:08:59Z</time>
      </trkpt>
      <trkpt lat="50.13312" lon="3.65687">
        <ele>165.96</ele>
        <time>2016-03-13T09:09:12Z</time>
      </trkpt>
      <trkpt lat="50.13343" lon="3.65731">
        <ele>164.52</ele>
        <time>2016-03-13T09:09:25Z</time>
      </trkpt>
      <trkpt lat="50.13345" lon="3.65735">
        <ele>164.52</ele>
        <time>2016-03-13T09:09:26Z</time>
      </trkpt>
      <trkpt lat="50.13381" lon="3.65787">
        <ele>164.52</ele>
        <time>2016-03-13T09:09:41Z</time>
      </trkpt>
      <trkpt lat="50.13413" lon="3.65831">
        <ele>164.04</ele>
        <time>2016-03-13T09:09:53Z</time>
      </trkpt>
      <trkpt lat="50.13446" lon="3.65864">
        <ele>163.56</ele>
        <time>2016-03-13T09:10:04Z</time>
      </trkpt>
      <trkpt lat="50.13448" lon="3.65862">
        <ele>163.56</ele>
        <time>2016-03-13T09:10:05Z</time>
      </trkpt>
      <trkpt lat="50.13451" lon="3.65858">
        <ele>163.56</ele>
        <time>2016-03-13T09:10:06Z</time>
      </trkpt>
      <trkpt lat="50.13464" lon="3.65836">
        <ele>165</ele>
        <time>2016-03-13T09:10:12Z</time>
      </trkpt>
      <trkpt lat="50.13505" lon="3.65779">
        <ele>166.45</ele>
        <time>2016-03-13T09:10:29Z</time>
      </trkpt>
      <trkpt lat="50.1354" lon="3.65728">
        <ele>168.85</ele>
        <time>2016-03-13T09:10:46Z</time>
      </trkpt>
      <trkpt lat="50.13575" lon="3.65679">
        <ele>169.81</ele>
        <time>2016-03-13T09:11:03Z</time>
      </trkpt>
      <trkpt lat="50.13605" lon="3.65636">
        <ele>170.29</ele>
        <time>2016-03-13T09:11:18Z</time>
      </trkpt>
      <trkpt lat="50.13625" lon="3.65611">
        <ele>168.85</ele>
        <time>2016-03-13T09:11:26Z</time>
      </trkpt>
      <trkpt lat="50.13629" lon="3.65612">
        <ele>168.85</ele>
        <time>2016-03-13T09:11:27Z</time>
      </trkpt>
      <trkpt lat="50.13632" lon="3.65613">
        <ele>168.85</ele>
        <time>2016-03-13T09:11:28Z</time>
      </trkpt>
      <trkpt lat="50.13634" lon="3.65616">
        <ele>168.85</ele>
        <time>2016-03-13T09:11:29Z</time>
      </trkpt>
      <trkpt lat="50.13636" lon="3.65619">
        <ele>168.85</ele>
        <time>2016-03-13T09:11:30Z</time>
      </trkpt>
      <trkpt lat="50.13638" lon="3.65623">
        <ele>168.85</ele>
        <time>2016-03-13T09:11:31Z</time>
      </trkpt>
      <trkpt lat="50.1364" lon="3.65626">
        <ele>168.85</ele>
        <time>2016-03-13T09:11:32Z</time>
      </trkpt>
      <trkpt lat="50.13651" lon="3.65648">
        <ele>170.29</ele>
        <time>2016-03-13T09:11:38Z</time>
      </trkpt>
      <trkpt lat="50.13657" lon="3.65659">
        <ele>171.73</ele>
        <time>2016-03-13T09:11:41Z</time>
      </trkpt>
      <trkpt lat="50.13696" lon="3.65717">
        <ele>172.21</ele>
        <time>2016-03-13T09:11:59Z</time>
      </trkpt>
      <trkpt lat="50.13725" lon="3.65755">
        <ele>171.25</ele>
        <time>2016-03-13T09:12:15Z</time>
      </trkpt>
      <trkpt lat="50.13725" lon="3.65762">
        <ele>171.25</ele>
        <time>2016-03-13T09:12:25Z</time>
      </trkpt>
      <trkpt lat="50.13723" lon="3.65763">
        <ele>171.25</ele>
        <time>2016-03-13T09:12:38Z</time>
      </trkpt>
      <trkpt lat="50.13715" lon="3.65773">
        <ele>171.25</ele>
        <time>2016-03-13T09:12:51Z</time>
      </trkpt>
      <trkpt lat="50.13713" lon="3.65782">
        <ele>171.25</ele>
        <time>2016-03-13T09:13:04Z</time>
      </trkpt>
      <trkpt lat="50.13715" lon="3.65788">
        <ele>170.29</ele>
        <time>2016-03-13T09:13:21Z</time>
      </trkpt>
    </trkseg>
  </trk>
</gpx>